Time,TemperatureF,DewpointF,PressureIn,WindDirection,WindDirectionDegrees,WindSpeedMPH,WindSpeedGustMPH,Humidity,HourlyPrecipIn,Conditions,Clouds,dailyrainin,SoftwareType,DateUTC
2013-01-16 00:02:00,9.8,7.2,30.17,SSW,196,0.0,0.0,89,0.00,,,0.00,Wunderground v.1.15,2013-01-16 06:02:00,
2013-01-16 00:04:00,9.7,7.1,30.17,SSW,196,0.0,0.0,89,0.00,,,0.00,Wunderground v.1.15,2013-01-16 06:04:00,
2013-01-16 00:07:00,9.7,7.1,30.17,SSW,196,0.0,0.0,89,0.00,,,0.00,Wunderground v.1.15,2013-01-16 06:07:00,
2013-01-16 00:10:00,9.7,7.1,30.17,SSW,196,0.0,0.0,89,0.00,,,0.00,Wunderground v.1.15,2013-01-16 06:10:00,
2013-01-16 00:11:00,9.6,7.0,30.17,SSW,196,0.0,0.0,89,0.00,,,0.00,Wunderground v.1.15,2013-01-16 06:11:00,
2013-01-16 00:16:00,9.5,6.9,30.17,SSW,196,0.0,0.0,89,0.00,,,0.00,Wunderground v.1.15,2013-01-16 06:16:00,
2013-01-16 00:18:00,9.4,6.6,30.17,SSW,196,0.0,0.0,88,0.00,,,0.00,Wunderground v.1.15,2013-01-16 06:18:00,
2013-01-16 00:19:00,9.3,6.5,30.17,SSW,196,0.0,0.0,88,0.00,,,0.00,Wunderground v.1.15,2013-01-16 06:19:00,
2013-01-16 00:23:00,9.2,6.6,30.17,SSW,196,0.0,0.0,89,0.00,,,0.00,Wunderground v.1.15,2013-01-16 06:23:00,
2013-01-16 00:24:00,9.2,6.6,30.17,SSW,196,0.0,0.0,89,0.00,,,0.00,Wunderground v.1.15,2013-01-16 06:24:00,
2013-01-16 00:27:00,9.1,6.5,30.17,SSW,196,0.0,0.0,89,0.00,,,0.00,Wunderground v.1.15,2013-01-16 06:27:00,
2013-01-16 00:28:00,9.1,6.5,30.17,SSW,196,0.0,0.0,89,0.00,,,0.00,Wunderground v.1.15,2013-01-16 06:28:00,
2013-01-16 00:29:00,9.0,6.4,30.17,SSW,196,0.0,0.0,89,0.00,,,0.00,Wunderground v.1.15,2013-01-16 06:29:00,
2013-01-16 00:33:00,8.9,6.1,30.16,SSW,196,0.0,0.0,88,0.00,,,0.00,Wunderground v.1.15,2013-01-16 06:33:00,
2013-01-16 00:36:00,8.9,6.3,30.16,SSW,196,0.0,0.0,89,0.00,,,0.00,Wunderground v.1.15,2013-01-16 06:36:00,
2013-01-16 00:37:00,8.9,6.3,30.16,SSW,196,0.0,0.0,89,0.00,,,0.00,Wunderground v.1.15,2013-01-16 06:37:00,
2013-01-16 00:38:00,8.9,6.3,30.16,SSW,196,0.0,0.0,89,0.00,,,0.00,Wunderground v.1.15,2013-01-16 06:38:00,
2013-01-16 00:44:00,8.8,6.2,30.16,SSW,196,0.0,0.0,89,0.00,,,0.00,Wunderground v.1.15,2013-01-16 06:44:00,
2013-01-16 00:45:00,8.7,6.1,30.16,SSW,196,0.0,0.0,89,0.00,,,0.00,Wunderground v.1.15,2013-01-16 06:45:00,
2013-01-16 00:47:00,8.7,6.1,30.16,SSW,196,0.0,0.0,89,0.00,,,0.00,Wunderground v.1.15,2013-01-16 06:47:00,
2013-01-16 00:49:00,8.6,6.0,30.16,SSW,196,0.0,0.0,89,0.00,,,0.00,Wunderground v.1.15,2013-01-16 06:49:00,
2013-01-16 00:52:00,8.6,6.0,30.16,SSW,196,0.0,0.0,89,0.00,,,0.00,Wunderground v.1.15,2013-01-16 06:52:00,
2013-01-16 00:54:00,8.5,5.9,30.16,SSW,196,0.0,0.0,89,0.00,,,0.00,Wunderground v.1.15,2013-01-16 06:54:00,
2013-01-16 00:55:00,8.5,5.9,30.16,SSW,196,0.0,1.0,89,0.00,,,0.00,Wunderground v.1.15,2013-01-16 06:55:00,
2013-01-16 00:57:00,8.5,5.9,30.16,SSW,196,0.0,2.0,89,0.00,,,0.00,Wunderground v.1.15,2013-01-16 06:57:00,
2013-01-16 00:59:00,8.4,5.8,30.15,SSW,196,1.0,2.0,89,0.00,,,0.00,Wunderground v.1.15,2013-01-16 06:59:00,
2013-01-16 01:00:00,8.4,5.8,30.15,SSW,196,1.0,1.0,89,0.00,,,0.00,Wunderground v.1.15,2013-01-16 07:00:00,
2013-01-16 01:01:00,8.4,5.8,30.15,SSW,196,1.0,1.0,89,0.00,,,0.00,Wunderground v.1.15,2013-01-16 07:01:00,
2013-01-16 01:05:00,8.5,5.9,30.15,SSW,196,1.0,2.0,89,0.00,,,0.00,Wunderground v.1.15,2013-01-16 07:05:00,
2013-01-16 01:07:00,8.6,6.3,30.15,SSW,196,1.0,2.0,90,0.00,,,0.00,Wunderground v.1.15,2013-01-16 07:07:00,
2013-01-16 01:09:00,8.7,6.4,30.15,SSW,196,1.0,2.0,90,0.00,,,0.00,Wunderground v.1.15,2013-01-16 07:09:00,
2013-01-16 01:10:00,8.7,6.4,30.15,SSW,196,1.0,1.0,90,0.00,,,0.00,Wunderground v.1.15,2013-01-16 07:10:00,
2013-01-16 01:12:00,8.8,6.5,30.15,SSW,196,1.0,2.0,90,0.00,,,0.00,Wunderground v.1.15,2013-01-16 07:12:00,
2013-01-16 01:16:00,9.0,6.7,30.15,SSW,196,1.0,2.0,90,0.00,,,0.00,Wunderground v.1.15,2013-01-16 07:16:00,
2013-01-16 01:17:00,9.1,6.8,30.15,SSW,196,1.0,2.0,90,0.00,,,0.00,Wunderground v.1.15,2013-01-16 07:17:00,
2013-01-16 01:19:00,9.1,6.8,30.15,SSW,196,1.0,2.0,90,0.00,,,0.00,Wunderground v.1.15,2013-01-16 07:19:00,
2013-01-16 01:21:00,9.2,6.9,30.14,SSW,196,1.0,2.0,90,0.00,,,0.00,Wunderground v.1.15,2013-01-16 07:21:00,
2013-01-16 01:24:00,9.2,6.9,30.14,SSW,196,1.0,2.0,90,0.00,,,0.00,Wunderground v.1.15,2013-01-16 07:24:00,
2013-01-16 01:25:00,9.2,6.9,30.14,SSW,196,1.0,2.0,90,0.00,,,0.00,Wunderground v.1.15,2013-01-16 07:25:00,
2013-01-16 01:26:00,9.3,7.0,30.14,SSW,196,1.0,2.0,90,0.00,,,0.00,Wunderground v.1.15,2013-01-16 07:26:00,
2013-01-16 01:29:00,9.5,7.2,30.14,SSW,196,1.0,2.0,90,0.00,,,0.00,Wunderground v.1.15,2013-01-16 07:29:00,
2013-01-16 01:32:00,9.8,7.7,30.13,SSW,196,2.0,2.0,91,0.00,,,0.00,Wunderground v.1.15,2013-01-16 07:32:00,
2013-01-16 01:33:00,9.9,7.8,30.13,SSW,196,2.0,3.0,91,0.00,,,0.00,Wunderground v.1.15,2013-01-16 07:33:00,
2013-01-16 01:35:00,10.0,7.9,30.13,SSW,196,2.0,3.0,91,0.00,,,0.00,Wunderground v.1.15,2013-01-16 07:35:00,
2013-01-16 01:36:00,10.1,8.0,30.14,SSW,196,2.0,3.0,91,0.00,,,0.00,Wunderground v.1.15,2013-01-16 07:36:00,
2013-01-16 01:38:00,10.1,7.8,30.14,SSW,196,2.0,3.0,90,0.00,,,0.00,Wunderground v.1.15,2013-01-16 07:38:00,
2013-01-16 01:41:00,10.3,8.2,30.14,SSW,196,2.0,3.0,91,0.00,,,0.00,Wunderground v.1.15,2013-01-16 07:41:00,
2013-01-16 01:43:00,10.4,8.3,30.14,SSW,196,2.0,3.0,91,0.00,,,0.00,Wunderground v.1.15,2013-01-16 07:43:00,
2013-01-16 01:45:00,10.7,8.6,30.14,SSW,196,2.0,3.0,91,0.00,,,0.00,Wunderground v.1.15,2013-01-16 07:45:00,
2013-01-16 01:47:00,10.8,8.7,30.14,SSW,196,2.0,3.0,91,0.00,,,0.00,Wunderground v.1.15,2013-01-16 07:47:00,
2013-01-16 01:49:00,10.9,8.8,30.14,SSW,196,2.0,3.0,91,0.00,,,0.00,Wunderground v.1.15,2013-01-16 07:49:00,
2013-01-16 01:50:00,11.0,8.9,30.14,SSW,196,2.0,2.0,91,0.00,,,0.00,Wunderground v.1.15,2013-01-16 07:50:00,
2013-01-16 01:52:00,11.1,9.0,30.14,SSW,196,2.0,2.0,91,0.00,,,0.00,Wunderground v.1.15,2013-01-16 07:52:00,
2013-01-16 01:53:00,11.1,9.0,30.14,SSW,196,2.0,3.0,91,0.00,,,0.00,Wunderground v.1.15,2013-01-16 07:53:00,
2013-01-16 01:55:00,11.2,9.1,30.14,SSW,196,2.0,3.0,91,0.00,,,0.00,Wunderground v.1.15,2013-01-16 07:55:00,
2013-01-16 01:58:00,11.2,9.1,30.14,SSW,196,2.0,3.0,91,0.00,,,0.00,Wunderground v.1.15,2013-01-16 07:58:00,
2013-01-16 01:59:00,11.2,8.8,30.14,SSW,196,2.0,3.0,90,0.00,,,0.00,Wunderground v.1.15,2013-01-16 07:59:00,
2013-01-16 02:01:00,11.2,9.1,30.14,SSW,196,2.0,2.0,91,0.00,,,0.00,Wunderground v.1.15,2013-01-16 08:01:00,
2013-01-16 02:02:00,11.3,9.2,30.14,SSW,196,2.0,2.0,91,0.00,,,0.00,Wunderground v.1.15,2013-01-16 08:02:00,
2013-01-16 02:03:00,11.3,8.9,30.14,SSW,196,2.0,2.0,90,0.00,,,0.00,Wunderground v.1.15,2013-01-16 08:03:00,
2013-01-16 02:06:00,11.5,9.4,30.14,SSW,196,2.0,2.0,91,0.00,,,0.00,Wunderground v.1.15,2013-01-16 08:06:00,
2013-01-16 02:11:00,11.6,9.2,30.14,SSW,196,2.0,2.0,90,0.00,,,0.00,Wunderground v.1.15,2013-01-16 08:11:00,
2013-01-16 02:12:00,11.7,9.3,30.14,SSW,196,2.0,2.0,90,0.00,,,0.00,Wunderground v.1.15,2013-01-16 08:12:00,
2013-01-16 02:14:00,11.7,9.3,30.14,SSW,196,2.0,3.0,90,0.00,,,0.00,Wunderground v.1.15,2013-01-16 08:14:00,
2013-01-16 02:15:00,11.8,9.4,30.14,SSW,195,2.0,3.0,90,0.00,,,0.00,Wunderground v.1.15,2013-01-16 08:15:00,
2013-01-16 02:17:00,11.8,9.4,30.14,SSW,195,2.0,3.0,90,0.00,,,0.00,Wunderground v.1.15,2013-01-16 08:17:00,
2013-01-16 02:19:00,11.8,9.4,30.14,SSW,195,2.0,3.0,90,0.00,,,0.00,Wunderground v.1.15,2013-01-16 08:19:00,
2013-01-16 02:20:00,11.8,9.4,30.14,SSW,195,2.0,2.0,90,0.00,,,0.00,Wunderground v.1.15,2013-01-16 08:20:00,
2013-01-16 02:25:00,11.7,9.3,30.13,SSW,196,2.0,2.0,90,0.00,,,0.00,Wunderground v.1.15,2013-01-16 08:25:00,
2013-01-16 02:26:00,11.7,9.3,30.13,SSW,195,2.0,2.0,90,0.00,,,0.00,Wunderground v.1.15,2013-01-16 08:26:00,
2013-01-16 02:27:00,11.7,9.3,30.14,SSW,195,2.0,2.0,90,0.00,,,0.00,Wunderground v.1.15,2013-01-16 08:27:00,
2013-01-16 02:28:00,11.6,9.0,30.13,SSW,196,2.0,2.0,89,0.00,,,0.00,Wunderground v.1.15,2013-01-16 08:28:00,
2013-01-16 02:33:00,11.4,8.8,30.13,SSW,196,2.0,2.0,89,0.00,,,0.00,Wunderground v.1.15,2013-01-16 08:33:00,
2013-01-16 02:34:00,11.3,8.7,30.13,SSW,196,2.0,2.0,89,0.00,,,0.00,Wunderground v.1.15,2013-01-16 08:34:00,
2013-01-16 02:35:00,11.3,8.7,30.14,SSW,196,2.0,2.0,89,0.00,,,0.00,Wunderground v.1.15,2013-01-16 08:35:00,
2013-01-16 02:39:00,11.2,8.6,30.13,SSW,196,2.0,3.0,89,0.00,,,0.00,Wunderground v.1.15,2013-01-16 08:39:00,
2013-01-16 02:40:00,11.1,8.5,30.13,SSW,196,2.0,2.0,89,0.00,,,0.00,Wunderground v.1.15,2013-01-16 08:40:00,
2013-01-16 02:41:00,11.1,8.5,30.13,SSW,196,2.0,2.0,89,0.00,,,0.00,Wunderground v.1.15,2013-01-16 08:41:00,
2013-01-16 02:43:00,11.1,8.5,30.13,SSW,196,2.0,4.0,89,0.00,,,0.00,Wunderground v.1.15,2013-01-16 08:43:00,
2013-01-16 02:46:00,11.2,8.8,30.13,SSW,196,2.0,4.0,90,0.00,,,0.00,Wunderground v.1.15,2013-01-16 08:46:00,
2013-01-16 02:47:00,11.3,8.9,30.13,SSW,196,2.0,4.0,90,0.00,,,0.00,Wunderground v.1.15,2013-01-16 08:47:00,
2013-01-16 02:50:00,11.5,9.1,30.13,SSW,196,3.0,3.0,90,0.00,,,0.00,Wunderground v.1.15,2013-01-16 08:50:00,
2013-01-16 02:52:00,11.6,9.2,30.13,SSW,196,3.0,3.0,90,0.00,,,0.00,Wunderground v.1.15,2013-01-16 08:52:00,
2013-01-16 02:53:00,11.6,9.2,30.13,SSW,196,3.0,3.0,90,0.00,,,0.00,Wunderground v.1.15,2013-01-16 08:53:00,
2013-01-16 02:55:00,11.7,9.3,30.13,SSW,196,2.0,4.0,90,0.00,,,0.00,Wunderground v.1.15,2013-01-16 08:55:00,
2013-01-16 02:56:00,11.7,9.3,30.13,SSW,196,2.0,4.0,90,0.00,,,0.00,Wunderground v.1.15,2013-01-16 08:56:00,
2013-01-16 02:58:00,11.7,9.3,30.13,SSW,196,2.0,4.0,90,0.00,,,0.00,Wunderground v.1.15,2013-01-16 08:58:00,
2013-01-16 03:02:00,11.8,9.4,30.13,SSW,196,2.0,3.0,90,0.00,,,0.00,Wunderground v.1.15,2013-01-16 09:02:00,
2013-01-16 03:03:00,11.9,9.5,30.13,SSW,196,2.0,3.0,90,0.00,,,0.00,Wunderground v.1.15,2013-01-16 09:03:00,
2013-01-16 03:04:00,11.9,9.3,30.13,SSW,196,2.0,3.0,89,0.00,,,0.00,Wunderground v.1.15,2013-01-16 09:04:00,
2013-01-16 03:06:00,12.0,9.4,30.12,SSW,196,2.0,3.0,89,0.00,,,0.00,Wunderground v.1.15,2013-01-16 09:06:00,
2013-01-16 03:10:00,12.0,9.4,30.12,SSW,196,3.0,3.0,89,0.00,,,0.00,Wunderground v.1.15,2013-01-16 09:10:00,
2013-01-16 03:12:00,12.1,9.5,30.12,SSW,193,3.0,3.0,89,0.00,,,0.00,Wunderground v.1.15,2013-01-16 09:12:00,
2013-01-16 03:13:00,12.1,9.5,30.12,South,185,3.0,6.0,89,0.00,,,0.00,Wunderground v.1.15,2013-01-16 09:13:00,
2013-01-16 03:14:00,12.1,9.5,30.12,South,188,3.0,6.0,89,0.00,,,0.00,Wunderground v.1.15,2013-01-16 09:14:00,
2013-01-16 03:15:00,12.2,9.6,30.12,South,188,3.0,6.0,89,0.00,,,0.00,Wunderground v.1.15,2013-01-16 09:15:00,
2013-01-16 03:18:00,12.3,9.7,30.12,South,189,4.0,6.0,89,0.00,,,0.00,Wunderground v.1.15,2013-01-16 09:18:00,
2013-01-16 03:21:00,12.5,9.9,30.12,South,187,4.0,6.0,89,0.00,,,0.00,Wunderground v.1.15,2013-01-16 09:21:00,
2013-01-16 03:23:00,12.5,9.6,30.11,South,190,4.0,6.0,88,0.00,,,0.00,Wunderground v.1.15,2013-01-16 09:23:00,
2013-01-16 03:26:00,12.6,9.7,30.11,South,187,4.0,6.0,88,0.00,,,0.00,Wunderground v.1.15,2013-01-16 09:26:00,
2013-01-16 03:27:00,12.7,9.8,30.11,South,188,4.0,6.0,88,0.00,,,0.00,Wunderground v.1.15,2013-01-16 09:27:00,
2013-01-16 03:28:00,12.7,9.8,30.11,South,188,4.0,6.0,88,0.00,,,0.00,Wunderground v.1.15,2013-01-16 09:28:00,
2013-01-16 03:31:00,12.8,9.9,30.11,South,191,4.0,4.0,88,0.00,,,0.00,Wunderground v.1.15,2013-01-16 09:31:00,
2013-01-16 03:34:00,12.8,9.7,30.11,South,191,4.0,4.0,87,0.00,,,0.00,Wunderground v.1.15,2013-01-16 09:34:00,
2013-01-16 03:36:00,12.8,9.7,30.11,South,191,3.0,4.0,87,0.00,,,0.00,Wunderground v.1.15,2013-01-16 09:36:00,
2013-01-16 03:37:00,12.8,9.7,30.10,South,191,3.0,4.0,87,0.00,,,0.00,Wunderground v.1.15,2013-01-16 09:37:00,
2013-01-16 03:41:00,12.7,9.6,30.10,SSW,197,3.0,4.0,87,0.00,,,0.00,Wunderground v.1.15,2013-01-16 09:41:00,
2013-01-16 03:42:00,12.7,9.6,30.10,SSW,198,3.0,4.0,87,0.00,,,0.00,Wunderground v.1.15,2013-01-16 09:42:00,
2013-01-16 03:45:00,12.7,9.6,30.10,SSW,195,3.0,5.0,87,0.00,,,0.00,Wunderground v.1.15,2013-01-16 09:45:00,
2013-01-16 03:48:00,12.7,9.6,30.10,SSW,196,3.0,7.0,87,0.00,,,0.00,Wunderground v.1.15,2013-01-16 09:48:00,
2013-01-16 03:52:00,12.8,9.7,30.09,SSW,193,4.0,6.0,87,0.00,,,0.00,Wunderground v.1.15,2013-01-16 09:52:00,
2013-01-16 03:54:00,12.9,9.5,30.10,SSW,192,4.0,7.0,86,0.00,,,0.00,Wunderground v.1.15,2013-01-16 09:54:00,
2013-01-16 03:55:00,13.0,9.6,30.10,SSW,193,4.0,7.0,86,0.00,,,0.00,Wunderground v.1.15,2013-01-16 09:55:00,
2013-01-16 03:56:00,13.0,9.6,30.09,SSW,194,4.0,9.0,86,0.00,,,0.00,Wunderground v.1.15,2013-01-16 09:56:00,
2013-01-16 04:01:00,13.1,9.7,30.09,SSW,194,4.0,6.0,86,0.00,,,0.00,Wunderground v.1.15,2013-01-16 10:01:00,
2013-01-16 04:02:00,13.1,9.7,30.09,SSW,192,4.0,10.0,86,0.00,,,0.00,Wunderground v.1.15,2013-01-16 10:02:00,
2013-01-16 04:06:00,13.1,9.4,30.09,SSW,198,5.0,10.0,85,0.00,,,0.00,Wunderground v.1.15,2013-01-16 10:06:00,
2013-01-16 04:09:00,13.1,9.4,30.08,SSW,196,4.0,10.0,85,0.00,,,0.00,Wunderground v.1.15,2013-01-16 10:09:00,
2013-01-16 04:11:00,13.1,9.4,30.08,South,186,4.0,6.0,85,0.00,,,0.00,Wunderground v.1.15,2013-01-16 10:11:00,
2013-01-16 04:15:00,13.0,9.3,30.08,South,187,4.0,6.0,85,0.00,,,0.00,Wunderground v.1.15,2013-01-16 10:15:00,
2013-01-16 04:16:00,13.0,9.1,30.08,South,187,4.0,6.0,84,0.00,,,0.00,Wunderground v.1.15,2013-01-16 10:16:00,
2013-01-16 04:18:00,12.9,9.0,30.07,South,187,3.0,6.0,84,0.00,,,0.00,Wunderground v.1.15,2013-01-16 10:18:00,
2013-01-16 04:19:00,12.9,9.0,30.07,South,187,3.0,6.0,84,0.00,,,0.00,Wunderground v.1.15,2013-01-16 10:19:00,
2013-01-16 04:22:00,12.7,8.8,30.07,South,187,3.0,3.0,84,0.00,,,0.00,Wunderground v.1.15,2013-01-16 10:22:00,
2013-01-16 04:24:00,12.6,8.7,30.07,South,187,3.0,4.0,84,0.00,,,0.00,Wunderground v.1.15,2013-01-16 10:24:00,
2013-01-16 04:25:00,12.6,8.9,30.07,South,187,3.0,4.0,85,0.00,,,0.00,Wunderground v.1.15,2013-01-16 10:25:00,
2013-01-16 04:27:00,12.5,8.8,30.07,South,187,3.0,4.0,85,0.00,,,0.00,Wunderground v.1.15,2013-01-16 10:27:00,
2013-01-16 04:29:00,12.4,8.5,30.07,South,187,3.0,4.0,84,0.00,,,0.00,Wunderground v.1.15,2013-01-16 10:29:00,
2013-01-16 04:30:00,12.3,8.7,30.07,South,187,3.0,3.0,85,0.00,,,0.00,Wunderground v.1.15,2013-01-16 10:30:00,
2013-01-16 04:31:00,12.3,8.7,30.07,South,187,3.0,4.0,85,0.00,,,0.00,Wunderground v.1.15,2013-01-16 10:31:00,
2013-01-16 04:34:00,12.3,8.7,30.07,SSW,199,3.0,4.0,85,0.00,,,0.00,Wunderground v.1.15,2013-01-16 10:34:00,
2013-01-16 04:38:00,12.5,9.1,30.07,South,189,4.0,9.0,86,0.00,,,0.00,Wunderground v.1.15,2013-01-16 10:38:00,
2013-01-16 04:39:00,12.5,9.1,30.06,South,189,4.0,9.0,86,0.00,,,0.00,Wunderground v.1.15,2013-01-16 10:39:00,
2013-01-16 04:42:00,12.7,9.0,30.06,South,191,5.0,5.0,85,0.00,,,0.00,Wunderground v.1.15,2013-01-16 10:42:00,
2013-01-16 04:43:00,12.7,9.0,30.06,SSW,192,5.0,5.0,85,0.00,,,0.00,Wunderground v.1.15,2013-01-16 10:43:00,
2013-01-16 04:45:00,12.8,9.1,30.06,SSW,194,4.0,5.0,85,0.00,,,0.00,Wunderground v.1.15,2013-01-16 10:45:00,
2013-01-16 04:48:00,12.9,9.2,30.06,SSW,192,4.0,6.0,85,0.00,,,0.00,Wunderground v.1.15,2013-01-16 10:48:00,
2013-01-16 04:49:00,12.9,9.2,30.06,SSW,192,4.0,6.0,85,0.00,,,0.00,Wunderground v.1.15,2013-01-16 10:49:00,
2013-01-16 04:53:00,13.0,9.3,30.06,SSW,193,3.0,6.0,85,0.00,,,0.00,Wunderground v.1.15,2013-01-16 10:53:00,
2013-01-16 04:55:00,13.0,9.3,30.06,SSW,194,4.0,6.0,85,0.00,,,0.00,Wunderground v.1.15,2013-01-16 10:55:00,
2013-01-16 04:57:00,13.0,9.3,30.06,SSW,192,4.0,6.0,85,0.00,,,0.00,Wunderground v.1.15,2013-01-16 10:57:00,
2013-01-16 04:59:00,13.1,9.2,30.06,SSW,192,4.0,6.0,84,0.00,,,0.00,Wunderground v.1.15,2013-01-16 10:59:00,
2013-01-16 05:01:00,13.1,9.2,30.06,SSW,192,3.0,3.0,84,0.00,,,0.00,Wunderground v.1.15,2013-01-16 11:01:00,
2013-01-16 05:03:00,13.0,9.1,30.06,SSW,196,3.0,4.0,84,0.00,,,0.00,Wunderground v.1.15,2013-01-16 11:03:00,
2013-01-16 05:04:00,13.0,9.1,30.06,SSW,196,3.0,4.0,84,0.00,,,0.00,Wunderground v.1.15,2013-01-16 11:04:00,
2013-01-16 05:05:00,13.0,9.1,30.06,SSW,196,3.0,4.0,84,0.00,,,0.00,Wunderground v.1.15,2013-01-16 11:05:00,
2013-01-16 05:07:00,13.0,9.1,30.06,SSW,196,3.0,4.0,84,0.00,,,0.00,Wunderground v.1.15,2013-01-16 11:07:00,
2013-01-16 05:09:00,13.0,9.1,30.06,SSW,198,3.0,5.0,84,0.00,,,0.00,Wunderground v.1.15,2013-01-16 11:09:00,
2013-01-16 05:12:00,13.0,9.1,30.06,SSW,201,3.0,5.0,84,0.00,,,0.00,Wunderground v.1.15,2013-01-16 11:12:00,
2013-01-16 05:13:00,13.0,9.1,30.06,SSW,202,3.0,5.0,84,0.00,,,0.00,Wunderground v.1.15,2013-01-16 11:13:00,
2013-01-16 05:16:00,13.0,9.1,30.05,South,190,4.0,5.0,84,0.00,,,0.00,Wunderground v.1.15,2013-01-16 11:16:00,
2013-01-16 05:19:00,13.0,9.1,30.05,SSW,197,4.0,6.0,84,0.00,,,0.00,Wunderground v.1.15,2013-01-16 11:19:00,
2013-01-16 05:21:00,13.1,9.2,30.05,SSW,199,4.0,5.0,84,0.00,,,0.00,Wunderground v.1.15,2013-01-16 11:21:00,
2013-01-16 05:22:00,13.1,9.2,30.05,SSW,199,4.0,5.0,84,0.00,,,0.00,Wunderground v.1.15,2013-01-16 11:22:00,
2013-01-16 05:25:00,13.2,9.3,30.05,SSW,209,5.0,5.0,84,0.00,,,0.00,Wunderground v.1.15,2013-01-16 11:25:00,
2013-01-16 05:26:00,13.2,9.3,30.06,SSW,200,5.0,5.0,84,0.00,,,0.00,Wunderground v.1.15,2013-01-16 11:26:00,
2013-01-16 05:28:00,13.2,9.3,30.05,South,188,5.0,9.0,84,0.00,,,0.00,Wunderground v.1.15,2013-01-16 11:28:00,
2013-01-16 05:30:00,13.4,9.5,30.05,South,190,5.0,5.0,84,0.00,,,0.00,Wunderground v.1.15,2013-01-16 11:30:00,
2013-01-16 05:31:00,13.4,9.5,30.06,South,191,5.0,5.0,84,0.00,,,0.00,Wunderground v.1.15,2013-01-16 11:31:00,
2013-01-16 05:35:00,13.5,9.3,30.05,SSW,205,5.0,5.0,83,0.00,,,0.00,Wunderground v.1.15,2013-01-16 11:35:00,
2013-01-16 05:36:00,13.5,9.3,30.05,SSW,205,5.0,5.0,83,0.00,,,0.00,Wunderground v.1.15,2013-01-16 11:36:00,
2013-01-16 05:37:00,13.5,9.3,30.05,SSW,205,5.0,6.0,83,0.00,,,0.00,Wunderground v.1.15,2013-01-16 11:37:00,
2013-01-16 05:38:00,13.5,9.3,30.05,SSW,201,5.0,6.0,83,0.00,,,0.00,Wunderground v.1.15,2013-01-16 11:38:00,
2013-01-16 05:40:00,13.6,9.4,30.05,SSW,213,5.0,6.0,83,0.00,,,0.00,Wunderground v.1.15,2013-01-16 11:40:00,
2013-01-16 05:43:00,13.6,9.4,30.05,SSW,211,5.0,6.0,83,0.00,,,0.00,Wunderground v.1.15,2013-01-16 11:43:00,
2013-01-16 05:46:00,13.6,9.4,30.05,SSW,205,4.0,6.0,83,0.00,,,0.00,Wunderground v.1.15,2013-01-16 11:46:00,
2013-01-16 05:49:00,13.5,9.3,30.05,SSW,207,4.0,6.0,83,0.00,,,0.00,Wunderground v.1.15,2013-01-16 11:49:00,
2013-01-16 05:51:00,13.6,9.4,30.05,SSW,207,4.0,6.0,83,0.00,,,0.00,Wunderground v.1.15,2013-01-16 11:51:00,
2013-01-16 05:54:00,13.6,9.4,30.05,SSW,196,4.0,6.0,83,0.00,,,0.00,Wunderground v.1.15,2013-01-16 11:54:00,
2013-01-16 05:56:00,13.6,9.4,30.04,SSW,202,4.0,6.0,83,0.00,,,0.00,Wunderground v.1.15,2013-01-16 11:56:00,
2013-01-16 05:59:00,13.6,9.4,30.04,SSW,202,4.0,6.0,83,0.00,,,0.00,Wunderground v.1.15,2013-01-16 11:59:00,
2013-01-16 06:01:00,13.6,9.4,30.04,South,189,4.0,6.0,83,0.00,,,0.00,Wunderground v.1.15,2013-01-16 12:01:00,
2013-01-16 06:05:00,13.7,9.5,30.04,SSW,196,4.0,6.0,83,0.00,,,0.00,Wunderground v.1.15,2013-01-16 12:05:00,
2013-01-16 06:07:00,13.7,9.2,30.04,SSW,198,4.0,6.0,82,0.00,,,0.00,Wunderground v.1.15,2013-01-16 12:07:00,
2013-01-16 06:09:00,13.7,9.2,30.04,SSW,196,4.0,6.0,82,0.00,,,0.00,Wunderground v.1.15,2013-01-16 12:09:00,
2013-01-16 06:12:00,13.8,9.3,30.04,SSW,196,4.0,4.0,82,0.00,,,0.00,Wunderground v.1.15,2013-01-16 12:12:00,
2013-01-16 06:13:00,13.8,9.3,30.04,SSW,198,4.0,4.0,82,0.00,,,0.00,Wunderground v.1.15,2013-01-16 12:13:00,
2013-01-16 06:17:00,13.7,9.2,30.03,South,186,4.0,4.0,82,0.00,,,0.00,Wunderground v.1.15,2013-01-16 12:17:00,
2013-01-16 06:18:00,13.7,9.2,30.03,South,186,4.0,4.0,82,0.00,,,0.00,Wunderground v.1.15,2013-01-16 12:18:00,
2013-01-16 06:19:00,13.8,9.3,30.03,South,186,4.0,4.0,82,0.00,,,0.00,Wunderground v.1.15,2013-01-16 12:19:00,
2013-01-16 06:20:00,13.7,9.2,30.03,South,186,4.0,5.0,82,0.00,,,0.00,Wunderground v.1.15,2013-01-16 12:20:00,
2013-01-16 06:23:00,13.6,9.1,30.03,SSW,196,4.0,7.0,82,0.00,,,0.00,Wunderground v.1.15,2013-01-16 12:23:00,
2013-01-16 06:27:00,13.5,9.0,30.03,SSW,192,5.0,7.0,82,0.00,,,0.00,Wunderground v.1.15,2013-01-16 12:27:00,
2013-01-16 06:28:00,13.5,9.0,30.03,SSW,192,5.0,7.0,82,0.00,,,0.00,Wunderground v.1.15,2013-01-16 12:28:00,
2013-01-16 06:29:00,13.4,8.9,30.03,SSW,195,5.0,10.0,82,0.00,,,0.00,Wunderground v.1.15,2013-01-16 12:29:00,
2013-01-16 06:33:00,13.4,8.9,30.02,South,190,5.0,7.0,82,0.00,,,0.00,Wunderground v.1.15,2013-01-16 12:33:00,
2013-01-16 06:34:00,13.4,8.9,30.02,South,190,5.0,7.0,82,0.00,,,0.00,Wunderground v.1.15,2013-01-16 12:34:00,
2013-01-16 06:35:00,13.4,8.9,30.02,South,190,5.0,7.0,82,0.00,,,0.00,Wunderground v.1.15,2013-01-16 12:35:00,
2013-01-16 06:39:00,13.3,8.8,30.02,SSW,200,6.0,10.0,82,0.00,,,0.00,Wunderground v.1.15,2013-01-16 12:39:00,
2013-01-16 06:40:00,13.4,8.9,30.02,SSW,200,6.0,6.0,82,0.00,,,0.00,Wunderground v.1.15,2013-01-16 12:40:00,
2013-01-16 06:42:00,13.4,8.9,30.02,South,191,6.0,6.0,82,0.00,,,0.00,Wunderground v.1.15,2013-01-16 12:42:00,
2013-01-16 06:44:00,13.4,8.9,30.02,SSW,194,6.0,8.0,82,0.00,,,0.00,Wunderground v.1.15,2013-01-16 12:44:00,
2013-01-16 06:46:00,13.4,8.9,30.02,SSW,194,6.0,8.0,82,0.00,,,0.00,Wunderground v.1.15,2013-01-16 12:46:00,
2013-01-16 06:47:00,13.4,8.9,30.02,SSW,193,6.0,9.0,82,0.00,,,0.00,Wunderground v.1.15,2013-01-16 12:47:00,
2013-01-16 06:51:00,13.6,9.1,30.02,South,190,6.0,10.0,82,0.00,,,0.00,Wunderground v.1.15,2013-01-16 12:51:00,
2013-01-16 06:52:00,13.6,9.1,30.02,SSW,196,7.0,10.0,82,0.00,,,0.00,Wunderground v.1.15,2013-01-16 12:52:00,
2013-01-16 06:53:00,13.6,9.1,30.02,SSW,192,7.0,10.0,82,0.00,,,0.00,Wunderground v.1.15,2013-01-16 12:53:00,
2013-01-16 06:57:00,13.7,9.0,30.02,SSW,204,6.0,10.0,81,0.00,,,0.00,Wunderground v.1.15,2013-01-16 12:57:00,
2013-01-16 06:58:00,13.7,9.0,30.02,South,188,6.0,10.0,81,0.00,,,0.00,Wunderground v.1.15,2013-01-16 12:58:00,
2013-01-16 07:00:00,13.8,9.0,30.01,South,189,6.0,6.0,81,0.00,,,0.00,Wunderground v.1.15,2013-01-16 13:00:00,
2013-01-16 07:01:00,13.9,9.1,30.01,SSW,194,6.0,10.0,81,0.00,,,0.00,Wunderground v.1.15,2013-01-16 13:01:00,
2013-01-16 07:03:00,13.9,9.1,30.01,SSW,194,6.0,10.0,81,0.00,,,0.00,Wunderground v.1.15,2013-01-16 13:03:00,
2013-01-16 07:07:00,13.9,9.1,30.02,SSW,192,6.0,11.0,81,0.00,,,0.00,Wunderground v.1.15,2013-01-16 13:07:00,
2013-01-16 07:08:00,14.0,9.2,30.02,SSW,193,6.0,11.0,81,0.00,,,0.00,Wunderground v.1.15,2013-01-16 13:08:00,
2013-01-16 07:09:00,14.0,9.2,30.02,SSW,192,6.0,11.0,81,0.00,,,0.00,Wunderground v.1.15,2013-01-16 13:09:00,
2013-01-16 07:11:00,14.0,9.2,30.02,SSW,201,6.0,10.0,81,0.00,,,0.00,Wunderground v.1.15,2013-01-16 13:11:00,
2013-01-16 07:14:00,14.0,9.2,30.02,SSW,193,5.0,10.0,81,0.00,,,0.00,Wunderground v.1.15,2013-01-16 13:14:00,
2013-01-16 07:15:00,13.9,9.1,30.02,South,185,5.0,10.0,81,0.00,,,0.00,Wunderground v.1.15,2013-01-16 13:15:00,
2013-01-16 07:16:00,13.9,9.1,30.02,SSW,193,5.0,10.0,81,0.00,,,0.00,Wunderground v.1.15,2013-01-16 13:16:00,
2013-01-16 07:20:00,13.9,9.1,30.02,SSW,211,5.0,5.0,81,0.00,,,0.00,Wunderground v.1.15,2013-01-16 13:20:00,
2013-01-16 07:21:00,13.9,9.1,30.02,SSW,195,5.0,5.0,81,0.00,,,0.00,Wunderground v.1.15,2013-01-16 13:21:00,
2013-01-16 07:22:00,13.9,9.1,30.02,South,188,5.0,10.0,81,0.00,,,0.00,Wunderground v.1.15,2013-01-16 13:22:00,
2013-01-16 07:23:00,13.9,9.1,30.02,SSW,194,5.0,10.0,81,0.00,,,0.00,Wunderground v.1.15,2013-01-16 13:23:00,
2013-01-16 07:27:00,14.0,9.2,30.02,South,184,5.0,10.0,81,0.00,,,0.00,Wunderground v.1.15,2013-01-16 13:27:00,
2013-01-16 07:28:00,14.0,9.0,30.02,South,184,5.0,10.0,80,0.00,,,0.00,Wunderground v.1.15,2013-01-16 13:28:00,
2013-01-16 07:32:00,14.0,9.0,30.02,South,188,5.0,7.0,80,0.00,,,0.00,Wunderground v.1.15,2013-01-16 13:32:00,
2013-01-16 07:33:00,14.0,9.0,30.02,SSW,192,4.0,7.0,80,0.00,,,0.00,Wunderground v.1.15,2013-01-16 13:33:00,
2013-01-16 07:35:00,14.0,9.0,30.02,South,186,4.0,7.0,80,0.00,,,0.00,Wunderground v.1.15,2013-01-16 13:35:00,
2013-01-16 07:36:00,14.0,9.0,30.02,South,190,4.0,7.0,80,0.00,,,0.00,Wunderground v.1.15,2013-01-16 13:36:00,
2013-01-16 07:41:00,14.0,9.2,30.02,South,178,5.0,5.0,81,0.00,,,0.00,Wunderground v.1.15,2013-01-16 13:41:00,
2013-01-16 07:42:00,14.1,9.3,30.01,SSW,199,5.0,5.0,81,0.00,,,0.00,Wunderground v.1.15,2013-01-16 13:42:00,
2013-01-16 07:43:00,14.1,9.3,30.02,South,183,5.0,6.0,81,0.00,,,0.00,Wunderground v.1.15,2013-01-16 13:43:00,
2013-01-16 07:48:00,14.4,9.4,30.01,SSW,194,6.0,11.0,80,0.00,,,0.00,Wunderground v.1.15,2013-01-16 13:48:00,
2013-01-16 07:49:00,14.4,9.4,30.01,South,189,6.0,11.0,80,0.00,,,0.00,Wunderground v.1.15,2013-01-16 13:49:00,
2013-01-16 07:51:00,14.5,9.5,30.01,SSW,194,6.0,6.0,80,0.00,,,0.00,Wunderground v.1.15,2013-01-16 13:51:00,
2013-01-16 07:53:00,14.7,9.6,30.01,South,189,7.0,7.0,80,0.00,,,0.00,Wunderground v.1.15,2013-01-16 13:53:00,
2013-01-16 07:54:00,14.7,9.6,30.01,SSW,213,6.0,7.0,80,0.00,,,0.00,Wunderground v.1.15,2013-01-16 13:54:00,
2013-01-16 07:57:00,15.0,9.9,30.02,SSW,200,6.0,11.0,80,0.00,,,0.00,Wunderground v.1.15,2013-01-16 13:57:00,
2013-01-16 07:58:00,15.0,9.9,30.02,SSW,200,6.0,11.0,80,0.00,,,0.00,Wunderground v.1.15,2013-01-16 13:58:00,
2013-01-16 07:59:00,15.1,10.0,30.02,SSW,192,6.0,11.0,80,0.00,,,0.00,Wunderground v.1.15,2013-01-16 13:59:00,
2013-01-16 08:03:00,15.4,10.3,30.02,SSW,201,5.0,6.0,80,0.00,,,0.00,Wunderground v.1.15,2013-01-16 14:03:00,
2013-01-16 08:04:00,15.5,10.4,30.02,SW,219,5.0,6.0,80,0.00,,,0.00,Wunderground v.1.15,2013-01-16 14:04:00,
2013-01-16 08:05:00,15.6,10.5,30.02,SSW,196,6.0,10.0,80,0.00,,,0.00,Wunderground v.1.15,2013-01-16 14:05:00,
2013-01-16 08:06:00,15.6,10.5,30.02,SSW,207,5.0,10.0,80,0.00,,,0.00,Wunderground v.1.15,2013-01-16 14:06:00,
2013-01-16 08:09:00,15.9,10.5,30.02,SSW,198,6.0,10.0,79,0.00,,,0.00,Wunderground v.1.15,2013-01-16 14:09:00,
2013-01-16 08:11:00,16.1,10.7,30.02,South,183,6.0,6.0,79,0.00,,,0.00,Wunderground v.1.15,2013-01-16 14:11:00,
2013-01-16 08:12:00,16.2,10.8,30.02,SSE,157,6.0,6.0,79,0.00,,,0.00,Wunderground v.1.15,2013-01-16 14:12:00,
2013-01-16 08:17:00,16.7,11.3,30.01,SSW,196,7.0,10.0,79,0.00,,,0.00,Wunderground v.1.15,2013-01-16 14:17:00,
2013-01-16 08:18:00,16.8,11.4,30.01,South,186,7.0,10.0,79,0.00,,,0.00,Wunderground v.1.15,2013-01-16 14:18:00,
2013-01-16 08:22:00,17.2,11.5,30.01,SSW,199,7.0,9.0,78,0.00,,,0.00,Wunderground v.1.15,2013-01-16 14:22:00,
2013-01-16 08:24:00,17.4,11.7,30.01,SSW,200,8.0,9.0,78,0.00,,,0.00,Wunderground v.1.15,2013-01-16 14:24:00,
2013-01-16 08:27:00,17.7,12.0,30.01,SSW,210,6.0,9.0,78,0.00,,,0.00,Wunderground v.1.15,2013-01-16 14:27:00,
2013-01-16 08:28:00,17.7,12.0,30.01,SSW,212,6.0,9.0,78,0.00,,,0.00,Wunderground v.1.15,2013-01-16 14:28:00,
2013-01-16 08:30:00,17.9,11.9,30.01,SW,220,5.0,5.0,77,0.00,,,0.00,Wunderground v.1.15,2013-01-16 14:30:00,
2013-01-16 08:31:00,18.0,12.0,30.01,SW,217,5.0,6.0,77,0.00,,,0.00,Wunderground v.1.15,2013-01-16 14:31:00,
2013-01-16 08:35:00,18.5,12.5,30.01,SW,215,5.0,9.0,77,0.00,,,0.00,Wunderground v.1.15,2013-01-16 14:35:00,
2013-01-16 08:36:00,18.5,12.5,30.01,SSW,192,5.0,9.0,77,0.00,,,0.00,Wunderground v.1.15,2013-01-16 14:36:00,
2013-01-16 08:38:00,18.7,12.4,30.01,SSW,209,5.0,10.0,76,0.00,,,0.00,Wunderground v.1.15,2013-01-16 14:38:00,
2013-01-16 08:40:00,19.0,12.7,30.00,SSW,199,6.0,6.0,76,0.00,,,0.00,Wunderground v.1.15,2013-01-16 14:40:00,
2013-01-16 08:41:00,19.1,12.8,30.00,South,175,6.0,7.0,76,0.00,,,0.00,Wunderground v.1.15,2013-01-16 14:41:00,
2013-01-16 08:45:00,19.6,13.0,30.00,SSW,196,7.0,8.0,75,0.00,,,0.00,Wunderground v.1.15,2013-01-16 14:45:00,
2013-01-16 08:47:00,19.7,13.1,30.00,SSW,192,7.0,9.0,75,0.00,,,0.00,Wunderground v.1.15,2013-01-16 14:47:00,
2013-01-16 08:51:00,20.1,13.1,30.00,SSW,210,8.0,11.0,74,0.00,,,0.00,Wunderground v.1.15,2013-01-16 14:51:00,
2013-01-16 08:52:00,20.2,13.2,30.00,SSW,209,9.0,11.0,74,0.00,,,0.00,Wunderground v.1.15,2013-01-16 14:52:00,
2013-01-16 08:54:00,20.4,13.4,29.99,SSW,200,9.0,11.0,74,0.00,,,0.00,Wunderground v.1.15,2013-01-16 14:54:00,
2013-01-16 08:58:00,20.7,13.7,29.99,SSW,200,9.0,11.0,74,0.00,,,0.00,Wunderground v.1.15,2013-01-16 14:58:00,
2013-01-16 09:00:00,20.9,13.9,29.99,SSW,210,9.0,10.0,74,0.00,,,0.00,Wunderground v.1.15,2013-01-16 15:00:00,
2013-01-16 09:01:00,21.0,13.7,29.99,SSW,198,9.0,10.0,73,0.00,,,0.00,Wunderground v.1.15,2013-01-16 15:01:00,
2013-01-16 09:02:00,21.0,13.7,29.99,SW,226,9.0,11.0,73,0.00,,,0.00,Wunderground v.1.15,2013-01-16 15:02:00,
2013-01-16 09:06:00,21.2,13.9,29.99,SSW,211,9.0,11.0,73,0.00,,,0.00,Wunderground v.1.15,2013-01-16 15:06:00,
2013-01-16 09:07:00,21.3,14.0,29.99,SSW,203,10.0,11.0,73,0.00,,,0.00,Wunderground v.1.15,2013-01-16 15:07:00,
2013-01-16 09:10:00,21.6,14.3,29.99,SSW,196,10.0,14.0,73,0.00,,,0.00,Wunderground v.1.15,2013-01-16 15:10:00,
2013-01-16 09:11:00,21.6,14.3,29.99,SSE,167,10.0,14.0,73,0.00,,,0.00,Wunderground v.1.15,2013-01-16 15:11:00,
2013-01-16 09:12:00,21.7,14.1,29.99,SSW,205,10.0,14.0,72,0.00,,,0.00,Wunderground v.1.15,2013-01-16 15:12:00,
2013-01-16 09:14:00,21.7,14.1,29.99,SSW,205,10.0,14.0,72,0.00,,,0.00,Wunderground v.1.15,2013-01-16 15:14:00,
2013-01-16 09:19:00,22.0,14.3,29.99,SSW,208,10.0,14.0,72,0.00,,,0.00,Wunderground v.1.15,2013-01-16 15:19:00,
2013-01-16 09:20:00,22.1,14.4,29.98,SSW,207,9.0,11.0,72,0.00,,,0.00,Wunderground v.1.15,2013-01-16 15:20:00,
2013-01-16 09:22:00,22.1,14.4,29.98,SSE,165,9.0,11.0,72,0.00,,,0.00,Wunderground v.1.15,2013-01-16 15:22:00,
2013-01-16 09:24:00,22.3,14.6,29.98,SSW,198,8.0,11.0,72,0.00,,,0.00,Wunderground v.1.15,2013-01-16 15:24:00,
2013-01-16 09:25:00,22.4,15.1,29.98,SW,220,8.0,11.0,73,0.00,,,0.00,Wunderground v.1.15,2013-01-16 15:25:00,
2013-01-16 09:28:00,22.6,14.9,29.98,South,173,8.0,13.0,72,0.00,,,0.00,Wunderground v.1.15,2013-01-16 15:28:00,
2013-01-16 09:29:00,22.7,15.3,29.98,SSE,167,8.0,13.0,73,0.00,,,0.00,Wunderground v.1.15,2013-01-16 15:29:00,
2013-01-16 09:30:00,22.8,15.4,29.98,SSW,204,8.0,8.0,73,0.00,,,0.00,Wunderground v.1.15,2013-01-16 15:30:00,
2013-01-16 09:33:00,23.0,15.3,29.98,SW,232,8.0,8.0,72,0.00,,,0.00,Wunderground v.1.15,2013-01-16 15:33:00,
2013-01-16 09:34:00,23.0,15.3,29.98,SSW,195,9.0,10.0,72,0.00,,,0.00,Wunderground v.1.15,2013-01-16 15:34:00,
2013-01-16 09:38:00,23.3,15.9,29.98,SSW,201,8.0,10.0,73,0.00,,,0.00,Wunderground v.1.15,2013-01-16 15:38:00,
2013-01-16 09:39:00,23.4,16.0,29.98,SSW,213,8.0,10.0,73,0.00,,,0.00,Wunderground v.1.15,2013-01-16 15:39:00,
2013-01-16 09:40:00,23.6,16.2,29.98,SSW,210,7.0,7.0,73,0.00,,,0.00,Wunderground v.1.15,2013-01-16 15:40:00,
2013-01-16 09:43:00,23.7,15.7,29.98,South,189,8.0,15.0,71,0.00,,,0.00,Wunderground v.1.15,2013-01-16 15:43:00,
2013-01-16 09:45:00,23.8,16.1,29.98,SSW,205,8.0,15.0,72,0.00,,,0.00,Wunderground v.1.15,2013-01-16 15:45:00,
2013-01-16 09:46:00,23.9,16.2,29.98,South,175,9.0,15.0,72,0.00,,,0.00,Wunderground v.1.15,2013-01-16 15:46:00,
2013-01-16 09:48:00,24.0,16.3,29.98,SW,231,9.0,15.0,72,0.00,,,0.00,Wunderground v.1.15,2013-01-16 15:48:00,
2013-01-16 09:50:00,24.1,16.4,29.98,SSW,196,10.0,10.0,72,0.00,,,0.00,Wunderground v.1.15,2013-01-16 15:50:00,
2013-01-16 09:52:00,24.2,16.1,29.98,South,189,10.0,13.0,71,0.00,,,0.00,Wunderground v.1.15,2013-01-16 15:52:00,
2013-01-16 09:53:00,24.2,16.5,29.98,SSW,201,10.0,13.0,72,0.00,,,0.00,Wunderground v.1.15,2013-01-16 15:53:00,
2013-01-16 09:55:00,24.4,16.7,29.98,South,178,10.0,13.0,72,0.00,,,0.00,Wunderground v.1.15,2013-01-16 15:55:00,
2013-01-16 09:57:00,24.5,16.8,29.98,SSW,201,10.0,13.0,72,0.00,,,0.00,Wunderground v.1.15,2013-01-16 15:57:00,
2013-01-16 09:59:00,24.6,16.9,29.98,SSW,213,10.0,13.0,72,0.00,,,0.00,Wunderground v.1.15,2013-01-16 15:59:00,
2013-01-16 10:00:00,24.7,16.6,29.98,SSW,205,10.0,10.0,71,0.00,,,0.00,Wunderground v.1.15,2013-01-16 16:00:00,
2013-01-16 10:01:00,24.7,16.6,29.98,SSW,204,10.0,12.0,71,0.00,,,0.00,Wunderground v.1.15,2013-01-16 16:01:00,
2013-01-16 10:05:00,25.0,17.2,29.97,SSW,210,10.0,12.0,72,0.00,,,0.00,Wunderground v.1.15,2013-01-16 16:05:00,
2013-01-16 10:06:00,25.1,17.3,29.97,SSW,192,10.0,17.0,72,0.00,,,0.00,Wunderground v.1.15,2013-01-16 16:06:00,
2013-01-16 10:10:00,25.4,17.6,29.97,South,189,10.0,12.0,72,0.00,,,0.00,Wunderground v.1.15,2013-01-16 16:10:00,
2013-01-16 10:11:00,25.5,17.7,29.97,SSW,194,10.0,12.0,72,0.00,,,0.00,Wunderground v.1.15,2013-01-16 16:11:00,
2013-01-16 10:12:00,25.6,17.8,29.97,SSW,203,10.0,12.0,72,0.00,,,0.00,Wunderground v.1.15,2013-01-16 16:12:00,
2013-01-16 10:13:00,25.7,17.9,29.97,SSW,192,10.0,12.0,72,0.00,,,0.00,Wunderground v.1.15,2013-01-16 16:13:00,
2013-01-16 10:17:00,26.0,17.9,29.97,SSE,164,10.0,12.0,71,0.00,,,0.00,Wunderground v.1.15,2013-01-16 16:17:00,
2013-01-16 10:18:00,26.1,18.0,29.96,SSW,198,10.0,12.0,71,0.00,,,0.00,Wunderground v.1.15,2013-01-16 16:18:00,
2013-01-16 10:19:00,26.1,18.0,29.97,SSW,209,11.0,12.0,71,0.00,,,0.00,Wunderground v.1.15,2013-01-16 16:19:00,
2013-01-16 10:20:00,26.2,18.1,29.97,South,187,11.0,20.0,71,0.00,,,0.00,Wunderground v.1.15,2013-01-16 16:20:00,
2013-01-16 10:25:00,26.4,18.3,29.96,South,189,11.0,20.0,71,0.00,,,0.00,Wunderground v.1.15,2013-01-16 16:25:00,
2013-01-16 10:27:00,26.5,18.4,29.96,SSW,213,12.0,20.0,71,0.00,,,0.00,Wunderground v.1.15,2013-01-16 16:27:00,
2013-01-16 10:29:00,26.7,18.6,29.96,SSW,194,11.0,20.0,71,0.00,,,0.00,Wunderground v.1.15,2013-01-16 16:29:00,
2013-01-16 10:31:00,26.9,18.7,29.95,SW,223,10.0,11.0,71,0.00,,,0.00,Wunderground v.1.15,2013-01-16 16:31:00,
2013-01-16 10:33:00,27.1,18.9,29.95,SSW,209,10.0,11.0,71,0.00,,,0.00,Wunderground v.1.15,2013-01-16 16:33:00,
2013-01-16 10:35:00,27.2,19.0,29.95,SW,217,10.0,15.0,71,0.00,,,0.00,Wunderground v.1.15,2013-01-16 16:35:00,
2013-01-16 10:36:00,27.3,19.1,29.95,SSW,206,10.0,15.0,71,0.00,,,0.00,Wunderground v.1.15,2013-01-16 16:36:00,
2013-01-16 10:38:00,27.4,18.9,29.95,SW,214,9.0,18.0,70,0.00,,,0.00,Wunderground v.1.15,2013-01-16 16:38:00,
2013-01-16 10:40:00,27.6,19.1,29.95,SW,220,11.0,11.0,70,0.00,,,0.00,Wunderground v.1.15,2013-01-16 16:40:00,
2013-01-16 10:43:00,27.7,19.5,29.95,South,187,10.0,15.0,71,0.00,,,0.00,Wunderground v.1.15,2013-01-16 16:43:00,
2013-01-16 10:45:00,27.8,19.3,29.94,South,182,11.0,15.0,70,0.00,,,0.00,Wunderground v.1.15,2013-01-16 16:45:00,
2013-01-16 10:47:00,27.9,19.4,29.94,South,186,11.0,15.0,70,0.00,,,0.00,Wunderground v.1.15,2013-01-16 16:47:00,
2013-01-16 10:49:00,27.9,19.4,29.94,SSW,192,11.0,15.0,70,0.00,,,0.00,Wunderground v.1.15,2013-01-16 16:49:00,
2013-01-16 10:51:00,28.0,19.5,29.94,South,185,11.0,13.0,70,0.00,,,0.00,Wunderground v.1.15,2013-01-16 16:51:00,
2013-01-16 10:54:00,28.1,19.6,29.94,SSW,211,11.0,13.0,70,0.00,,,0.00,Wunderground v.1.15,2013-01-16 16:54:00,
2013-01-16 10:56:00,28.1,19.6,29.94,South,180,10.0,13.0,70,0.00,,,0.00,Wunderground v.1.15,2013-01-16 16:56:00,
2013-01-16 10:57:00,28.2,20.0,29.94,SSW,205,10.0,13.0,71,0.00,,,0.00,Wunderground v.1.15,2013-01-16 16:57:00,
2013-01-16 10:58:00,28.3,20.1,29.93,SSW,195,10.0,13.0,71,0.00,,,0.00,Wunderground v.1.15,2013-01-16 16:58:00,
2013-01-16 11:01:00,28.5,20.3,29.94,SSW,206,9.0,9.0,71,0.00,,,0.00,Wunderground v.1.15,2013-01-16 17:01:00,
2013-01-16 11:02:00,28.7,20.5,29.93,SW,215,9.0,11.0,71,0.00,,,0.00,Wunderground v.1.15,2013-01-16 17:02:00,
2013-01-16 11:05:00,28.9,20.3,29.93,SSW,211,9.0,13.0,70,0.00,,,0.00,Wunderground v.1.15,2013-01-16 17:05:00,
2013-01-16 11:07:00,29.0,20.4,29.93,SSW,210,10.0,14.0,70,0.00,,,0.00,Wunderground v.1.15,2013-01-16 17:07:00,
2013-01-16 11:08:00,29.0,20.1,29.93,SSW,192,10.0,17.0,69,0.00,,,0.00,Wunderground v.1.15,2013-01-16 17:08:00,
2013-01-16 11:10:00,29.0,20.4,29.93,SSW,206,11.0,11.0,70,0.00,,,0.00,Wunderground v.1.15,2013-01-16 17:10:00,
2013-01-16 11:13:00,29.1,20.5,29.93,SW,221,11.0,12.0,70,0.00,,,0.00,Wunderground v.1.15,2013-01-16 17:13:00,
2013-01-16 11:14:00,29.2,20.6,29.93,WSW,238,11.0,12.0,70,0.00,,,0.00,Wunderground v.1.15,2013-01-16 17:14:00,
2013-01-16 11:15:00,29.2,20.6,29.92,SSW,211,11.0,12.0,70,0.00,,,0.00,Wunderground v.1.15,2013-01-16 17:15:00,
2013-01-16 11:19:00,29.3,20.7,29.92,SSW,213,11.0,13.0,70,0.00,,,0.00,Wunderground v.1.15,2013-01-16 17:19:00,
2013-01-16 11:20:00,29.4,21.2,29.92,South,172,11.0,14.0,71,0.00,,,0.00,Wunderground v.1.15,2013-01-16 17:20:00,
2013-01-16 11:25:00,29.6,21.0,29.92,SSW,200,11.0,14.0,70,0.00,,,0.00,Wunderground v.1.15,2013-01-16 17:25:00,
2013-01-16 11:26:00,29.6,21.0,29.93,SSW,200,11.0,14.0,70,0.00,,,0.00,Wunderground v.1.15,2013-01-16 17:26:00,
2013-01-16 11:27:00,29.7,21.1,29.92,SSW,213,11.0,17.0,70,0.00,,,0.00,Wunderground v.1.15,2013-01-16 17:27:00,
2013-01-16 11:30:00,29.8,21.2,29.92,SSW,199,13.0,15.0,70,0.00,,,0.00,Wunderground v.1.15,2013-01-16 17:30:00,
2013-01-16 11:31:00,29.8,21.2,29.92,WSW,238,13.0,15.0,70,0.00,,,0.00,Wunderground v.1.15,2013-01-16 17:31:00,
2013-01-16 11:33:00,29.9,21.3,29.92,SSW,194,13.0,15.0,70,0.00,,,0.00,Wunderground v.1.15,2013-01-16 17:33:00,
2013-01-16 11:35:00,30.0,21.7,29.92,SSW,199,13.0,15.0,71,0.00,,,0.00,Wunderground v.1.15,2013-01-16 17:35:00,
2013-01-16 11:37:00,30.1,21.8,29.92,SW,220,12.0,15.0,71,0.00,,,0.00,Wunderground v.1.15,2013-01-16 17:37:00,
2013-01-16 11:38:00,30.2,21.9,29.92,South,183,11.0,15.0,71,0.00,,,0.00,Wunderground v.1.15,2013-01-16 17:38:00,
2013-01-16 11:42:00,30.4,22.1,29.91,South,190,11.0,11.0,71,0.00,,,0.00,Wunderground v.1.15,2013-01-16 17:42:00,
2013-01-16 11:44:00,30.6,22.3,29.91,SW,219,10.0,13.0,71,0.00,,,0.00,Wunderground v.1.15,2013-01-16 17:44:00,
2013-01-16 11:45:00,30.7,22.1,29.91,SSW,211,10.0,13.0,70,0.00,,,0.00,Wunderground v.1.15,2013-01-16 17:45:00,
2013-01-16 11:49:00,30.6,21.6,29.91,SSW,204,12.0,17.0,69,0.00,,,0.00,Wunderground v.1.15,2013-01-16 17:49:00,
2013-01-16 11:50:00,30.6,22.0,29.91,SSW,211,12.0,12.0,70,0.00,,,0.00,Wunderground v.1.15,2013-01-16 17:50:00,
2013-01-16 11:51:00,30.6,22.0,29.91,SSW,208,12.0,12.0,70,0.00,,,0.00,Wunderground v.1.15,2013-01-16 17:51:00,
2013-01-16 11:55:00,30.8,22.5,29.90,SW,220,12.0,16.0,71,0.00,,,0.00,Wunderground v.1.15,2013-01-16 17:55:00,
2013-01-16 11:56:00,30.8,22.5,29.90,SW,219,12.0,16.0,71,0.00,,,0.00,Wunderground v.1.15,2013-01-16 17:56:00,
2013-01-16 11:57:00,30.9,22.3,29.90,SSW,196,12.0,21.0,70,0.00,,,0.00,Wunderground v.1.15,2013-01-16 17:57:00,
2013-01-16 12:01:00,31.2,22.5,29.90,SW,221,11.0,16.0,70,0.00,,,0.00,Wunderground v.1.15,2013-01-16 18:01:00,
2013-01-16 12:02:00,31.3,22.3,29.90,SSW,194,11.0,16.0,69,0.00,,,0.00,Wunderground v.1.15,2013-01-16 18:02:00,
2013-01-16 12:03:00,31.4,22.7,29.90,SW,214,12.0,16.0,70,0.00,,,0.00,Wunderground v.1.15,2013-01-16 18:03:00,
2013-01-16 12:06:00,31.6,23.3,29.90,SSW,213,11.0,18.0,71,0.00,,,0.00,Wunderground v.1.15,2013-01-16 18:06:00,
2013-01-16 12:08:00,31.8,22.8,29.90,South,172,12.0,18.0,69,0.00,,,0.00,Wunderground v.1.15,2013-01-16 18:08:00,
2013-01-16 12:09:00,31.9,22.9,29.90,SSW,193,12.0,18.0,69,0.00,,,0.00,Wunderground v.1.15,2013-01-16 18:09:00,
2013-01-16 12:11:00,31.9,22.9,29.90,SW,227,11.0,11.0,69,0.00,,,0.00,Wunderground v.1.15,2013-01-16 18:11:00,
2013-01-16 12:12:00,32.0,23.0,29.90,SW,215,11.0,11.0,69,0.00,,,0.00,Wunderground v.1.15,2013-01-16 18:12:00,
2013-01-16 12:15:00,32.1,22.7,29.89,SW,223,11.0,17.0,68,0.00,,,0.00,Wunderground v.1.15,2013-01-16 18:15:00,
2013-01-16 12:18:00,32.2,22.8,29.89,SSW,213,11.0,17.0,68,0.00,,,0.00,Wunderground v.1.15,2013-01-16 18:18:00,
2013-01-16 12:20:00,32.2,23.2,29.89,SSW,195,11.0,11.0,69,0.00,,,0.00,Wunderground v.1.15,2013-01-16 18:20:00,
2013-01-16 12:21:00,32.3,23.3,29.89,SSW,209,11.0,11.0,69,0.00,,,0.00,Wunderground v.1.15,2013-01-16 18:21:00,
2013-01-16 12:23:00,32.4,23.4,29.89,SSW,211,11.0,14.0,69,0.00,,,0.00,Wunderground v.1.15,2013-01-16 18:23:00,
2013-01-16 12:26:00,32.6,23.2,29.88,SSW,197,12.0,15.0,68,0.00,,,0.00,Wunderground v.1.15,2013-01-16 18:26:00,
2013-01-16 12:28:00,32.6,23.6,29.88,SSW,193,12.0,15.0,69,0.00,,,0.00,Wunderground v.1.15,2013-01-16 18:28:00,
2013-01-16 12:30:00,32.7,23.3,29.89,SW,218,13.0,13.0,68,0.00,,,0.00,Wunderground v.1.15,2013-01-16 18:30:00,
2013-01-16 12:32:00,32.7,22.9,29.89,WSW,242,13.0,17.0,67,0.00,,,0.00,Wunderground v.1.15,2013-01-16 18:32:00,
2013-01-16 12:33:00,32.7,22.9,29.89,South,188,13.0,17.0,67,0.00,,,0.00,Wunderground v.1.15,2013-01-16 18:33:00,
2013-01-16 12:36:00,32.6,23.2,29.89,SSE,154,13.0,17.0,68,0.00,,,0.00,Wunderground v.1.15,2013-01-16 18:36:00,
2013-01-16 12:38:00,32.7,23.6,29.88,SW,223,13.0,17.0,69,0.00,,,0.00,Wunderground v.1.15,2013-01-16 18:38:00,
2013-01-16 12:39:00,32.7,23.6,29.89,SW,234,12.0,17.0,69,0.00,,,0.00,Wunderground v.1.15,2013-01-16 18:39:00,
2013-01-16 12:41:00,32.9,23.8,29.88,SW,233,12.0,15.0,69,0.00,,,0.00,Wunderground v.1.15,2013-01-16 18:41:00,
2013-01-16 12:42:00,33.0,23.9,29.90,South,182,12.0,18.0,69,0.00,,,0.00,Wunderground v.1.15,2013-01-16 18:42:00,
2013-01-16 12:43:00,33.0,23.6,29.89,SSW,210,12.0,18.0,68,0.00,,,0.00,Wunderground v.1.15,2013-01-16 18:43:00,
2013-01-16 12:44:00,33.0,23.2,29.89,SW,225,12.0,18.0,67,0.00,,,0.00,Wunderground v.1.15,2013-01-16 18:44:00,
2013-01-16 12:46:00,32.9,23.5,29.89,South,190,12.0,18.0,68,0.00,,,0.00,Wunderground v.1.15,2013-01-16 18:46:00,
2013-01-16 12:50:00,32.7,23.3,29.89,SW,227,12.0,12.0,68,0.00,,,0.00,Wunderground v.1.15,2013-01-16 18:50:00,
2013-01-16 12:51:00,32.7,23.6,29.89,SW,220,12.0,12.0,69,0.00,,,0.00,Wunderground v.1.15,2013-01-16 18:51:00,
2013-01-16 12:52:00,32.7,23.6,29.89,SSW,205,12.0,14.0,69,0.00,,,0.00,Wunderground v.1.15,2013-01-16 18:52:00,
2013-01-16 12:53:00,32.6,23.6,29.89,SSW,213,11.0,14.0,69,0.00,,,0.00,Wunderground v.1.15,2013-01-16 18:53:00,
2013-01-16 12:56:00,32.5,23.8,29.89,WSW,254,11.0,14.0,70,0.00,,,0.00,Wunderground v.1.15,2013-01-16 18:56:00,
2013-01-16 12:58:00,32.4,23.7,29.90,WSW,242,11.0,14.0,70,0.00,,,0.00,Wunderground v.1.15,2013-01-16 18:58:00,
2013-01-16 12:59:00,32.4,23.7,29.90,South,188,11.0,14.0,70,0.00,,,0.00,Wunderground v.1.15,2013-01-16 18:59:00,
2013-01-16 13:02:00,32.3,23.9,29.89,South,184,11.0,11.0,71,0.00,,,0.00,Wunderground v.1.15,2013-01-16 19:02:00,
2013-01-16 13:04:00,32.2,23.8,29.89,WSW,237,10.0,11.0,71,0.00,,,0.00,Wunderground v.1.15,2013-01-16 19:04:00,
2013-01-16 13:05:00,32.2,24.2,29.89,WSW,239,10.0,11.0,72,0.00,,,0.00,Wunderground v.1.15,2013-01-16 19:05:00,
2013-01-16 13:09:00,32.1,24.1,29.90,SSW,201,9.0,12.0,72,0.00,,,0.00,Wunderground v.1.15,2013-01-16 19:09:00,
2013-01-16 13:10:00,32.1,23.8,29.90,South,190,8.0,9.0,71,0.00,,,0.00,Wunderground v.1.15,2013-01-16 19:10:00,
2013-01-16 13:14:00,32.1,24.1,29.90,SW,232,7.0,9.0,72,0.00,,,0.00,Wunderground v.1.15,2013-01-16 19:14:00,
2013-01-16 13:15:00,32.2,24.2,29.89,SSW,202,7.0,9.0,72,0.00,,,0.00,Wunderground v.1.15,2013-01-16 19:15:00,
2013-01-16 13:18:00,32.3,24.6,29.90,SSW,200,7.0,9.0,73,0.00,,,0.00,Wunderground v.1.15,2013-01-16 19:18:00,
2013-01-16 13:19:00,32.3,24.6,29.90,SW,236,7.0,9.0,73,0.00,,,0.00,Wunderground v.1.15,2013-01-16 19:19:00,
2013-01-16 13:22:00,32.3,24.3,29.90,South,180,6.0,12.0,72,0.00,,,0.00,Wunderground v.1.15,2013-01-16 19:22:00,
2013-01-16 13:23:00,32.3,24.3,29.90,SW,226,6.0,12.0,72,0.00,,,0.00,Wunderground v.1.15,2013-01-16 19:23:00,
2013-01-16 13:25:00,32.4,24.4,29.89,SSW,192,6.0,12.0,72,0.00,,,0.00,Wunderground v.1.15,2013-01-16 19:25:00,
2013-01-16 13:27:00,32.4,24.4,29.90,SW,233,6.0,12.0,72,0.00,,,0.00,Wunderground v.1.15,2013-01-16 19:27:00,
2013-01-16 13:29:00,32.4,24.4,29.90,WSW,237,7.0,12.0,72,0.00,,,0.00,Wunderground v.1.15,2013-01-16 19:29:00,
2013-01-16 13:34:00,32.4,24.4,29.89,SW,230,7.0,11.0,72,0.00,,,0.00,Wunderground v.1.15,2013-01-16 19:34:00,
2013-01-16 13:35:00,32.4,24.4,29.90,SSW,199,7.0,11.0,72,0.00,,,0.00,Wunderground v.1.15,2013-01-16 19:35:00,
2013-01-16 13:36:00,32.4,24.4,29.89,SW,224,7.0,11.0,72,0.00,,,0.00,Wunderground v.1.15,2013-01-16 19:36:00,
2013-01-16 13:38:00,32.5,24.5,29.90,SW,230,6.0,11.0,72,0.00,,,0.00,Wunderground v.1.15,2013-01-16 19:38:00,
2013-01-16 13:41:00,32.5,24.5,29.90,WSW,244,7.0,13.0,72,0.00,,,0.00,Wunderground v.1.15,2013-01-16 19:41:00,
2013-01-16 13:44:00,32.5,24.5,29.90,SSW,205,6.0,13.0,72,0.00,,,0.00,Wunderground v.1.15,2013-01-16 19:44:00,
2013-01-16 13:47:00,32.6,24.9,29.90,SW,233,7.0,13.0,73,0.00,,,0.00,Wunderground v.1.15,2013-01-16 19:47:00,
2013-01-16 13:49:00,32.6,24.6,29.90,SSW,210,7.0,13.0,72,0.00,,,0.00,Wunderground v.1.15,2013-01-16 19:49:00,
2013-01-16 13:50:00,32.6,24.6,29.90,SSW,198,7.0,7.0,72,0.00,,,0.00,Wunderground v.1.15,2013-01-16 19:50:00,
2013-01-16 13:53:00,32.6,24.9,29.90,SSW,205,6.0,7.0,73,0.00,,,0.00,Wunderground v.1.15,2013-01-16 19:53:00,
2013-01-16 13:55:00,32.7,24.7,29.90,WSW,238,7.0,11.0,72,0.00,,,0.00,Wunderground v.1.15,2013-01-16 19:55:00,
2013-01-16 13:57:00,32.7,24.7,29.90,SSW,195,7.0,12.0,72,0.00,,,0.00,Wunderground v.1.15,2013-01-16 19:57:00,
2013-01-16 13:58:00,32.7,24.3,29.90,SW,233,7.0,12.0,71,0.00,,,0.00,Wunderground v.1.15,2013-01-16 19:58:00,
2013-01-16 14:01:00,32.8,24.4,29.90,SW,227,7.0,9.0,71,0.00,,,0.00,Wunderground v.1.15,2013-01-16 20:01:00,
2013-01-16 14:03:00,32.9,24.9,29.90,SW,227,7.0,9.0,72,0.00,,,0.00,Wunderground v.1.15,2013-01-16 20:03:00,
2013-01-16 14:06:00,32.9,24.5,29.90,WSW,246,7.0,9.0,71,0.00,,,0.00,Wunderground v.1.15,2013-01-16 20:06:00,
2013-01-16 14:08:00,33.0,25.0,29.90,SW,228,6.0,9.0,72,0.00,,,0.00,Wunderground v.1.15,2013-01-16 20:08:00,
2013-01-16 14:10:00,33.0,25.0,29.90,SSW,213,6.0,9.0,72,0.00,,,0.00,Wunderground v.1.15,2013-01-16 20:10:00,
2013-01-16 14:12:00,33.0,24.6,29.91,SSW,201,6.0,9.0,71,0.00,,,0.00,Wunderground v.1.15,2013-01-16 20:12:00,
2013-01-16 14:13:00,33.1,24.7,29.90,SSW,211,6.0,10.0,71,0.00,,,0.00,Wunderground v.1.15,2013-01-16 20:13:00,
2013-01-16 14:14:00,33.1,25.1,29.91,SW,219,7.0,10.0,72,0.00,,,0.00,Wunderground v.1.15,2013-01-16 20:14:00,
2013-01-16 14:15:00,33.1,24.7,29.91,SSW,210,7.0,10.0,71,0.00,,,0.00,Wunderground v.1.15,2013-01-16 20:15:00,
2013-01-16 14:18:00,33.1,24.7,29.91,SW,232,7.0,10.0,71,0.00,,,0.00,Wunderground v.1.15,2013-01-16 20:18:00,
2013-01-16 14:20:00,33.1,24.7,29.91,SW,234,7.0,8.0,71,0.00,,,0.00,Wunderground v.1.15,2013-01-16 20:20:00,
2013-01-16 14:22:00,33.1,24.7,29.91,SSW,209,7.0,8.0,71,0.00,,,0.00,Wunderground v.1.15,2013-01-16 20:22:00,
2013-01-16 14:25:00,33.2,25.1,29.91,WSW,240,7.0,9.0,72,0.00,,,0.00,Wunderground v.1.15,2013-01-16 20:25:00,
2013-01-16 14:26:00,33.2,25.1,29.91,SW,227,7.0,10.0,72,0.00,,,0.00,Wunderground v.1.15,2013-01-16 20:26:00,
2013-01-16 14:27:00,33.2,25.1,29.90,WSW,257,7.0,10.0,72,0.00,,,0.00,Wunderground v.1.15,2013-01-16 20:27:00,
2013-01-16 14:31:00,33.2,25.1,29.90,SW,216,7.0,7.0,72,0.00,,,0.00,Wunderground v.1.15,2013-01-16 20:31:00,
2013-01-16 14:32:00,33.2,25.1,29.90,SW,217,7.0,7.0,72,0.00,,,0.00,Wunderground v.1.15,2013-01-16 20:32:00,
2013-01-16 14:33:00,33.3,25.2,29.90,SSW,210,7.0,7.0,72,0.00,,,0.00,Wunderground v.1.15,2013-01-16 20:33:00,
2013-01-16 14:38:00,33.3,25.2,29.90,SW,227,7.0,13.0,72,0.00,,,0.00,Wunderground v.1.15,2013-01-16 20:38:00,
2013-01-16 14:39:00,33.4,25.3,29.90,SW,222,7.0,13.0,72,0.00,,,0.00,Wunderground v.1.15,2013-01-16 20:39:00,
2013-01-16 14:41:00,33.4,25.3,29.90,SW,234,7.0,11.0,72,0.00,,,0.00,Wunderground v.1.15,2013-01-16 20:41:00,
2013-01-16 14:43:00,33.4,25.3,29.90,WSW,255,7.0,11.0,72,0.00,,,0.00,Wunderground v.1.15,2013-01-16 20:43:00,
2013-01-16 14:44:00,33.4,25.3,29.90,SW,228,7.0,11.0,72,0.00,,,0.00,Wunderground v.1.15,2013-01-16 20:44:00,
2013-01-16 14:48:00,33.5,25.4,29.90,WSW,243,7.0,16.0,72,0.00,,,0.00,Wunderground v.1.15,2013-01-16 20:48:00,
2013-01-16 14:50:00,33.5,25.4,29.90,SW,214,7.0,7.0,72,0.00,,,0.00,Wunderground v.1.15,2013-01-16 20:50:00,
2013-01-16 14:52:00,33.6,25.9,29.90,South,191,7.0,7.0,73,0.00,,,0.00,Wunderground v.1.15,2013-01-16 20:52:00,
2013-01-16 14:55:00,33.7,26.0,29.90,SW,232,7.0,9.0,73,0.00,,,0.00,Wunderground v.1.15,2013-01-16 20:55:00,
2013-01-16 14:56:00,33.7,26.0,29.90,WSW,246,7.0,12.0,73,0.00,,,0.00,Wunderground v.1.15,2013-01-16 20:56:00,
2013-01-16 14:57:00,33.7,26.0,29.90,SW,230,7.0,12.0,73,0.00,,,0.00,Wunderground v.1.15,2013-01-16 20:57:00,
2013-01-16 15:00:00,33.8,26.1,29.91,SSW,202,7.0,14.0,73,0.00,,,0.00,Wunderground v.1.15,2013-01-16 21:00:00,
2013-01-16 15:01:00,33.8,26.1,29.91,South,191,7.0,14.0,73,0.00,,,0.00,Wunderground v.1.15,2013-01-16 21:01:00,
2013-01-16 15:05:00,33.8,26.1,29.91,SSW,207,7.0,14.0,73,0.00,,,0.00,Wunderground v.1.15,2013-01-16 21:05:00,
2013-01-16 15:07:00,33.8,25.7,29.92,SW,214,7.0,14.0,72,0.00,,,0.00,Wunderground v.1.15,2013-01-16 21:07:00,
2013-01-16 15:08:00,33.8,25.7,29.92,SW,216,7.0,14.0,72,0.00,,,0.00,Wunderground v.1.15,2013-01-16 21:08:00,
2013-01-16 15:10:00,33.8,26.1,29.92,SW,235,7.0,7.0,73,0.00,,,0.00,Wunderground v.1.15,2013-01-16 21:10:00,
2013-01-16 15:11:00,33.8,26.1,29.92,SW,235,7.0,7.0,73,0.00,,,0.00,Wunderground v.1.15,2013-01-16 21:11:00,
2013-01-16 15:14:00,33.8,26.1,29.92,SSW,193,7.0,10.0,73,0.00,,,0.00,Wunderground v.1.15,2013-01-16 21:14:00,
2013-01-16 15:16:00,33.7,26.0,29.92,SW,223,6.0,11.0,73,0.00,,,0.00,Wunderground v.1.15,2013-01-16 21:16:00,
2013-01-16 15:18:00,33.7,26.0,29.92,SSW,192,6.0,11.0,73,0.00,,,0.00,Wunderground v.1.15,2013-01-16 21:18:00,
2013-01-16 15:19:00,33.7,26.0,29.93,SSW,196,6.0,11.0,73,0.00,,,0.00,Wunderground v.1.15,2013-01-16 21:19:00,
2013-01-16 15:21:00,33.7,25.6,29.92,SW,221,7.0,9.0,72,0.00,,,0.00,Wunderground v.1.15,2013-01-16 21:21:00,
2013-01-16 15:24:00,33.6,25.9,29.93,SW,222,7.0,9.0,73,0.00,,,0.00,Wunderground v.1.15,2013-01-16 21:24:00,
2013-01-16 15:25:00,33.6,25.9,29.93,SSW,213,7.0,9.0,73,0.00,,,0.00,Wunderground v.1.15,2013-01-16 21:25:00,
2013-01-16 15:29:00,33.6,25.9,29.93,SSW,193,7.0,9.0,73,0.00,,,0.00,Wunderground v.1.15,2013-01-16 21:29:00,
2013-01-16 15:31:00,33.7,26.3,29.93,SSW,205,6.0,8.0,74,0.00,,,0.00,Wunderground v.1.15,2013-01-16 21:31:00,
2013-01-16 15:32:00,33.7,26.3,29.93,SSW,207,6.0,8.0,74,0.00,,,0.00,Wunderground v.1.15,2013-01-16 21:32:00,
2013-01-16 15:34:00,33.6,26.2,29.93,SW,226,6.0,9.0,74,0.00,,,0.00,Wunderground v.1.15,2013-01-16 21:34:00,
2013-01-16 15:38:00,33.6,26.2,29.93,SSW,198,6.0,9.0,74,0.00,,,0.00,Wunderground v.1.15,2013-01-16 21:38:00,
2013-01-16 15:39:00,33.6,26.2,29.93,SSW,196,6.0,9.0,74,0.00,,,0.00,Wunderground v.1.15,2013-01-16 21:39:00,
2013-01-16 15:40:00,33.6,26.2,29.93,SSW,211,6.0,8.0,74,0.00,,,0.00,Wunderground v.1.15,2013-01-16 21:40:00,
2013-01-16 15:41:00,33.6,26.2,29.93,SSW,207,6.0,8.0,74,0.00,,,0.00,Wunderground v.1.15,2013-01-16 21:41:00,
2013-01-16 15:45:00,33.6,26.5,29.93,SSW,207,6.0,8.0,75,0.00,,,0.00,Wunderground v.1.15,2013-01-16 21:45:00,
2013-01-16 15:47:00,33.7,26.6,29.93,SW,220,6.0,8.0,75,0.00,,,0.00,Wunderground v.1.15,2013-01-16 21:47:00,
2013-01-16 15:49:00,33.6,26.5,29.93,SW,214,6.0,8.0,75,0.00,,,0.00,Wunderground v.1.15,2013-01-16 21:49:00,
2013-01-16 15:51:00,33.6,26.8,29.94,SSW,211,6.0,6.0,76,0.00,,,0.00,Wunderground v.1.15,2013-01-16 21:51:00,
2013-01-16 15:54:00,33.6,26.8,29.94,SSW,210,6.0,10.0,76,0.00,,,0.00,Wunderground v.1.15,2013-01-16 21:54:00,
2013-01-16 15:56:00,33.5,26.7,29.94,SSW,207,7.0,10.0,76,0.00,,,0.00,Wunderground v.1.15,2013-01-16 21:56:00,
2013-01-16 15:59:00,33.6,26.8,29.95,SW,214,6.0,10.0,76,0.00,,,0.00,Wunderground v.1.15,2013-01-16 21:59:00,
2013-01-16 16:00:00,33.5,26.7,29.95,WSW,244,7.0,7.0,76,0.00,,,0.00,Wunderground v.1.15,2013-01-16 22:00:00,
2013-01-16 16:01:00,33.5,27.1,29.95,SSW,213,7.0,7.0,77,0.00,,,0.00,Wunderground v.1.15,2013-01-16 22:01:00,
2013-01-16 16:04:00,33.6,27.2,29.96,WSW,240,7.0,7.0,77,0.00,,,0.00,Wunderground v.1.15,2013-01-16 22:04:00,
2013-01-16 16:05:00,33.6,27.2,29.96,SW,216,6.0,7.0,77,0.00,,,0.00,Wunderground v.1.15,2013-01-16 22:05:00,
2013-01-16 16:08:00,33.7,27.3,29.96,SSW,212,6.0,7.0,77,0.00,,,0.00,Wunderground v.1.15,2013-01-16 22:08:00,
2013-01-16 16:09:00,33.7,27.3,29.95,SSW,211,6.0,7.0,77,0.00,,,0.00,Wunderground v.1.15,2013-01-16 22:09:00,
2013-01-16 16:10:00,33.7,27.6,29.95,SW,215,6.0,6.0,78,0.00,,,0.00,Wunderground v.1.15,2013-01-16 22:10:00,
2013-01-16 16:12:00,33.7,27.6,29.96,SW,215,5.0,6.0,78,0.00,,,0.00,Wunderground v.1.15,2013-01-16 22:12:00,
2013-01-16 16:14:00,33.7,27.6,29.96,SSW,213,5.0,6.0,78,0.00,,,0.00,Wunderground v.1.15,2013-01-16 22:14:00,
2013-01-16 16:17:00,33.7,27.3,29.96,SW,226,5.0,7.0,77,0.00,,,0.00,Wunderground v.1.15,2013-01-16 22:17:00,
2013-01-16 16:20:00,33.7,27.3,29.96,SSW,213,4.0,6.0,77,0.00,,,0.00,Wunderground v.1.15,2013-01-16 22:20:00,
2013-01-16 16:21:00,33.7,27.6,29.96,SW,231,4.0,6.0,78,0.00,,,0.00,Wunderground v.1.15,2013-01-16 22:21:00,
2013-01-16 16:23:00,33.6,27.2,29.96,SW,236,5.0,6.0,77,0.00,,,0.00,Wunderground v.1.15,2013-01-16 22:23:00,
2013-01-16 16:28:00,33.6,27.2,29.97,SSW,207,5.0,6.0,77,0.00,,,0.00,Wunderground v.1.15,2013-01-16 22:28:00,
2013-01-16 16:29:00,33.6,27.2,29.97,SSW,196,5.0,6.0,77,0.00,,,0.00,Wunderground v.1.15,2013-01-16 22:29:00,
2013-01-16 16:30:00,33.6,27.2,29.97,SSW,192,5.0,6.0,77,0.00,,,0.00,Wunderground v.1.15,2013-01-16 22:30:00,
2013-01-16 16:33:00,33.6,27.2,29.97,SSW,206,5.0,7.0,77,0.00,,,0.00,Wunderground v.1.15,2013-01-16 22:33:00,
2013-01-16 16:35:00,33.5,27.1,29.97,SW,215,5.0,7.0,77,0.00,,,0.00,Wunderground v.1.15,2013-01-16 22:35:00,
2013-01-16 16:36:00,33.5,27.1,29.97,SW,215,5.0,7.0,77,0.00,,,0.00,Wunderground v.1.15,2013-01-16 22:36:00,
2013-01-16 16:38:00,33.5,27.1,29.97,SW,219,6.0,7.0,77,0.00,,,0.00,Wunderground v.1.15,2013-01-16 22:38:00,
2013-01-16 16:40:00,33.5,27.1,29.97,SSW,213,6.0,6.0,77,0.00,,,0.00,Wunderground v.1.15,2013-01-16 22:40:00,
2013-01-16 16:41:00,33.5,27.4,29.97,SSW,212,6.0,6.0,78,0.00,,,0.00,Wunderground v.1.15,2013-01-16 22:41:00,
2013-01-16 16:43:00,33.4,27.3,29.97,SSW,209,5.0,6.0,78,0.00,,,0.00,Wunderground v.1.15,2013-01-16 22:43:00,
2013-01-16 16:44:00,33.4,27.0,29.97,South,186,5.0,6.0,77,0.00,,,0.00,Wunderground v.1.15,2013-01-16 22:44:00,
2013-01-16 16:49:00,33.3,26.9,29.97,SSW,205,5.0,10.0,77,0.00,,,0.00,Wunderground v.1.15,2013-01-16 22:49:00,
2013-01-16 16:50:00,33.2,26.8,29.97,SSW,205,5.0,5.0,77,0.00,,,0.00,Wunderground v.1.15,2013-01-16 22:50:00,
2013-01-16 16:51:00,33.3,27.2,29.97,SSW,205,5.0,6.0,78,0.00,,,0.00,Wunderground v.1.15,2013-01-16 22:51:00,
2013-01-16 16:52:00,33.3,27.2,29.97,SSW,199,5.0,6.0,78,0.00,,,0.00,Wunderground v.1.15,2013-01-16 22:52:00,
2013-01-16 16:57:00,33.1,27.0,29.97,SSW,202,5.0,6.0,78,0.00,,,0.00,Wunderground v.1.15,2013-01-16 22:57:00,
2013-01-16 16:58:00,33.1,27.0,29.97,SSW,202,5.0,6.0,78,0.00,,,0.00,Wunderground v.1.15,2013-01-16 22:58:00,
2013-01-16 16:59:00,33.1,27.0,29.98,SSW,202,4.0,6.0,78,0.00,,,0.00,Wunderground v.1.15,2013-01-16 22:59:00,
2013-01-16 17:00:00,33.0,27.2,29.98,SSW,202,4.0,4.0,79,0.00,,,0.00,Wunderground v.1.15,2013-01-16 23:00:00,
2013-01-16 17:02:00,33.0,27.2,29.98,SSW,200,4.0,4.0,79,0.00,,,0.00,Wunderground v.1.15,2013-01-16 23:02:00,
2013-01-16 17:03:00,33.0,27.2,29.98,SSW,197,4.0,4.0,79,0.00,,,0.00,Wunderground v.1.15,2013-01-16 23:03:00,
2013-01-16 17:06:00,32.9,27.1,29.98,SSW,200,4.0,5.0,79,0.00,,,0.00,Wunderground v.1.15,2013-01-16 23:06:00,
2013-01-16 17:08:00,32.8,27.0,29.98,SSW,202,4.0,5.0,79,0.00,,,0.00,Wunderground v.1.15,2013-01-16 23:08:00,
2013-01-16 17:10:00,32.8,27.0,29.98,SSW,209,4.0,4.0,79,0.00,,,0.00,Wunderground v.1.15,2013-01-16 23:10:00,
2013-01-16 17:13:00,32.7,26.9,29.98,SSW,207,4.0,6.0,79,0.00,,,0.00,Wunderground v.1.15,2013-01-16 23:13:00,
2013-01-16 17:14:00,32.7,26.9,29.98,SSW,207,4.0,6.0,79,0.00,,,0.00,Wunderground v.1.15,2013-01-16 23:14:00,
2013-01-16 17:15:00,32.6,26.8,29.98,SSW,207,3.0,6.0,79,0.00,,,0.00,Wunderground v.1.15,2013-01-16 23:15:00,
2013-01-16 17:19:00,32.5,27.0,29.98,SSW,209,3.0,6.0,80,0.00,,,0.00,Wunderground v.1.15,2013-01-16 23:19:00,
2013-01-16 17:20:00,32.4,26.9,29.98,SSW,209,3.0,3.0,80,0.00,,,0.00,Wunderground v.1.15,2013-01-16 23:20:00,
2013-01-16 17:21:00,32.4,26.9,29.98,SSW,209,3.0,3.0,80,0.00,,,0.00,Wunderground v.1.15,2013-01-16 23:21:00,
2013-01-16 17:22:00,32.3,26.8,29.98,SSW,209,3.0,3.0,80,0.00,,,0.00,Wunderground v.1.15,2013-01-16 23:22:00,
2013-01-16 17:24:00,32.2,26.7,29.98,SSW,209,3.0,3.0,80,0.00,,,0.00,Wunderground v.1.15,2013-01-16 23:24:00,
2013-01-16 17:27:00,32.1,26.6,29.98,SSW,209,3.0,4.0,80,0.00,,,0.00,Wunderground v.1.15,2013-01-16 23:27:00,
2013-01-16 17:28:00,32.0,26.5,29.98,SSW,209,3.0,4.0,80,0.00,,,0.00,Wunderground v.1.15,2013-01-16 23:28:00,
2013-01-16 17:29:00,32.0,26.8,29.98,SSW,209,3.0,4.0,81,0.00,,,0.00,Wunderground v.1.15,2013-01-16 23:29:00,
2013-01-16 17:32:00,31.8,26.6,29.98,SSW,211,4.0,6.0,81,0.00,,,0.00,Wunderground v.1.15,2013-01-16 23:32:00,
2013-01-16 17:34:00,31.7,26.5,29.98,SSW,207,4.0,6.0,81,0.00,,,0.00,Wunderground v.1.15,2013-01-16 23:34:00,
2013-01-16 17:35:00,31.7,26.8,29.98,SSW,207,4.0,6.0,82,0.00,,,0.00,Wunderground v.1.15,2013-01-16 23:35:00,
2013-01-16 17:37:00,31.6,26.7,29.98,SSW,207,4.0,6.0,82,0.00,,,0.00,Wunderground v.1.15,2013-01-16 23:37:00,
2013-01-16 17:38:00,31.6,26.7,29.98,SSW,207,4.0,6.0,82,0.00,,,0.00,Wunderground v.1.15,2013-01-16 23:38:00,
2013-01-16 17:40:00,31.4,26.5,29.99,SSW,206,3.0,5.0,82,0.00,,,0.00,Wunderground v.1.15,2013-01-16 23:40:00,
2013-01-16 17:42:00,31.4,26.5,29.99,SSW,206,3.0,5.0,82,0.00,,,0.00,Wunderground v.1.15,2013-01-16 23:42:00,
2013-01-16 17:45:00,31.3,26.7,29.99,SSW,206,3.0,5.0,83,0.00,,,0.00,Wunderground v.1.15,2013-01-16 23:45:00,
2013-01-16 17:46:00,31.2,26.6,29.99,SSW,206,3.0,5.0,83,0.00,,,0.00,Wunderground v.1.15,2013-01-16 23:46:00,
2013-01-16 17:47:00,31.2,26.6,29.99,SSW,206,3.0,5.0,83,0.00,,,0.00,Wunderground v.1.15,2013-01-16 23:47:00,
2013-01-16 17:51:00,31.1,26.5,30.00,SSW,206,2.0,2.0,83,0.00,,,0.00,Wunderground v.1.15,2013-01-16 23:51:00,
2013-01-16 17:52:00,31.1,26.5,29.99,SSW,206,2.0,2.0,83,0.00,,,0.00,Wunderground v.1.15,2013-01-16 23:52:00,
2013-01-16 17:53:00,31.0,26.4,29.99,SSW,206,2.0,2.0,83,0.00,,,0.00,Wunderground v.1.15,2013-01-16 23:53:00,
2013-01-16 17:56:00,30.8,26.2,30.00,SSW,206,2.0,2.0,83,0.00,,,0.00,Wunderground v.1.15,2013-01-16 23:56:00,
2013-01-16 17:57:00,30.8,26.2,30.00,SSW,206,2.0,2.0,83,0.00,,,0.00,Wunderground v.1.15,2013-01-16 23:57:00,
2013-01-16 17:59:00,30.6,26.1,30.00,SSW,206,2.0,4.0,83,0.00,,,0.00,Wunderground v.1.15,2013-01-16 23:59:00,
2013-01-16 18:02:00,30.5,26.0,30.00,SSW,206,2.0,2.0,83,0.00,,,0.00,Wunderground v.1.15,2013-01-17 00:02:00,
2013-01-16 18:05:00,30.3,26.0,30.00,SSW,206,2.0,2.0,84,0.00,,,0.00,Wunderground v.1.15,2013-01-17 00:05:00,
2013-01-16 18:06:00,30.3,26.0,30.00,SSW,206,1.0,2.0,84,0.00,,,0.00,Wunderground v.1.15,2013-01-17 00:06:00,
2013-01-16 18:08:00,30.2,25.9,30.00,SSW,206,1.0,2.0,84,0.00,,,0.00,Wunderground v.1.15,2013-01-17 00:08:00,
2013-01-16 18:11:00,30.1,25.8,30.00,SSW,206,1.0,1.0,84,0.00,,,0.00,Wunderground v.1.15,2013-01-17 00:11:00,
2013-01-16 18:13:00,30.0,25.8,30.01,SSW,206,1.0,1.0,84,0.00,,,0.00,Wunderground v.1.15,2013-01-17 00:13:00,
2013-01-16 18:14:00,30.0,25.8,30.01,SSW,206,1.0,1.0,84,0.00,,,0.00,Wunderground v.1.15,2013-01-17 00:14:00,
2013-01-16 18:15:00,29.9,25.7,30.01,SSW,207,1.0,1.0,84,0.00,,,0.00,Wunderground v.1.15,2013-01-17 00:15:00,
2013-01-16 18:18:00,29.8,25.6,30.00,SSW,206,1.0,2.0,84,0.00,,,0.00,Wunderground v.1.15,2013-01-17 00:18:00,
2013-01-16 18:19:00,29.7,25.5,30.00,SSW,206,1.0,3.0,84,0.00,,,0.00,Wunderground v.1.15,2013-01-17 00:19:00,
2013-01-16 18:21:00,29.6,25.4,30.00,SSW,206,1.0,3.0,84,0.00,,,0.00,Wunderground v.1.15,2013-01-17 00:21:00,
2013-01-16 18:22:00,29.6,25.6,30.00,SSW,206,1.0,3.0,85,0.00,,,0.00,Wunderground v.1.15,2013-01-17 00:22:00,
2013-01-16 18:25:00,29.4,25.4,30.00,SSW,206,2.0,4.0,85,0.00,,,0.00,Wunderground v.1.15,2013-01-17 00:25:00,
2013-01-16 18:27:00,29.4,25.4,30.00,SSW,206,2.0,4.0,85,0.00,,,0.00,Wunderground v.1.15,2013-01-17 00:27:00,
2013-01-16 18:28:00,29.3,25.4,30.00,SSW,206,2.0,4.0,85,0.00,,,0.00,Wunderground v.1.15,2013-01-17 00:28:00,
2013-01-16 18:33:00,29.3,25.6,30.00,SSW,206,2.0,3.0,86,0.00,,,0.00,Wunderground v.1.15,2013-01-17 00:33:00,
2013-01-16 18:34:00,29.3,25.6,30.00,SSW,206,2.0,3.0,86,0.00,,,0.00,Wunderground v.1.15,2013-01-17 00:34:00,
2013-01-16 18:35:00,29.3,25.6,30.01,SSW,206,2.0,3.0,86,0.00,,,0.00,Wunderground v.1.15,2013-01-17 00:35:00,
2013-01-16 18:37:00,29.3,25.6,30.01,SSW,206,2.0,3.0,86,0.00,,,0.00,Wunderground v.1.15,2013-01-17 00:37:00,
2013-01-16 18:39:00,29.3,25.6,30.01,SSW,206,2.0,3.0,86,0.00,,,0.00,Wunderground v.1.15,2013-01-17 00:39:00,
2013-01-16 18:40:00,29.3,25.6,30.01,SSW,206,2.0,3.0,86,0.00,,,0.00,Wunderground v.1.15,2013-01-17 00:40:00,
2013-01-16 18:42:00,29.3,25.6,30.01,SSW,206,2.0,3.0,86,0.00,,,0.00,Wunderground v.1.15,2013-01-17 00:42:00,
2013-01-16 18:43:00,29.3,25.6,30.01,SSW,206,2.0,3.0,86,0.00,,,0.00,Wunderground v.1.15,2013-01-17 00:43:00,
2013-01-16 18:48:00,29.2,25.5,30.02,SSW,206,2.0,4.0,86,0.00,,,0.00,Wunderground v.1.15,2013-01-17 00:48:00,
2013-01-16 18:49:00,29.2,25.8,30.02,SSW,206,2.0,4.0,87,0.00,,,0.00,Wunderground v.1.15,2013-01-17 00:49:00,
2013-01-16 18:50:00,29.2,25.8,30.02,SSW,207,2.0,2.0,87,0.00,,,0.00,Wunderground v.1.15,2013-01-17 00:50:00,
2013-01-16 18:54:00,29.4,26.0,30.02,SSW,207,3.0,5.0,87,0.00,,,0.00,Wunderground v.1.15,2013-01-17 00:54:00,
2013-01-16 18:55:00,29.4,26.3,30.02,SSW,207,3.0,5.0,88,0.00,,,0.00,Wunderground v.1.15,2013-01-17 00:55:00,
2013-01-16 18:59:00,29.6,26.5,30.02,SSW,213,3.0,5.0,88,0.00,,,0.00,Wunderground v.1.15,2013-01-17 00:59:00,
2013-01-16 19:02:00,29.8,26.7,30.02,SSW,212,3.0,4.0,88,0.00,,,0.00,Wunderground v.1.15,2013-01-17 01:02:00,
2013-01-16 19:03:00,29.9,26.8,30.02,SSW,212,3.0,4.0,88,0.00,,,0.00,Wunderground v.1.15,2013-01-17 01:03:00,
2013-01-16 19:07:00,30.1,27.0,30.02,SSW,212,3.0,4.0,88,0.00,,,0.00,Wunderground v.1.15,2013-01-17 01:07:00,
2013-01-16 19:08:00,30.1,27.0,30.02,SSW,212,3.0,4.0,88,0.00,,,0.00,Wunderground v.1.15,2013-01-17 01:08:00,
2013-01-16 19:11:00,30.3,27.2,30.03,SSW,211,3.0,4.0,88,0.00,,,0.00,Wunderground v.1.15,2013-01-17 01:11:00,
2013-01-16 19:13:00,30.4,27.3,30.03,SSW,200,3.0,5.0,88,0.00,,,0.00,Wunderground v.1.15,2013-01-17 01:13:00,
2013-01-16 19:14:00,30.5,27.4,30.03,SSW,200,3.0,5.0,88,0.00,,,0.00,Wunderground v.1.15,2013-01-17 01:14:00,
2013-01-16 19:18:00,30.7,27.6,30.03,SW,217,3.0,5.0,88,0.00,,,0.00,Wunderground v.1.15,2013-01-17 01:18:00,
2013-01-16 19:19:00,30.7,27.6,30.04,SW,217,3.0,5.0,88,0.00,,,0.00,Wunderground v.1.15,2013-01-17 01:19:00,
2013-01-16 19:21:00,30.8,27.4,30.03,SW,217,3.0,4.0,87,0.00,,,0.00,Wunderground v.1.15,2013-01-17 01:21:00,
2013-01-16 19:23:00,30.9,27.5,30.03,SW,218,3.0,4.0,87,0.00,,,0.00,Wunderground v.1.15,2013-01-17 01:23:00,
2013-01-16 19:24:00,30.9,27.5,30.04,SW,219,3.0,4.0,87,0.00,,,0.00,Wunderground v.1.15,2013-01-17 01:24:00,
2013-01-16 19:25:00,31.0,27.6,30.03,SW,219,3.0,4.0,87,0.00,,,0.00,Wunderground v.1.15,2013-01-17 01:25:00,
2013-01-16 19:28:00,31.1,27.7,30.03,SW,218,3.0,4.0,87,0.00,,,0.00,Wunderground v.1.15,2013-01-17 01:28:00,
2013-01-16 19:30:00,31.1,27.7,30.03,SW,218,3.0,3.0,87,0.00,,,0.00,Wunderground v.1.15,2013-01-17 01:30:00,
2013-01-16 19:32:00,31.1,27.7,30.04,SW,219,3.0,4.0,87,0.00,,,0.00,Wunderground v.1.15,2013-01-17 01:32:00,
2013-01-16 19:33:00,31.2,27.8,30.04,SW,219,3.0,4.0,87,0.00,,,0.00,Wunderground v.1.15,2013-01-17 01:33:00,
2013-01-16 19:38:00,31.2,27.5,30.04,SW,219,3.0,4.0,86,0.00,,,0.00,Wunderground v.1.15,2013-01-17 01:38:00,
2013-01-16 19:39:00,31.2,27.8,30.04,SW,219,3.0,4.0,87,0.00,,,0.00,Wunderground v.1.15,2013-01-17 01:39:00,
2013-01-16 19:40:00,31.2,27.8,30.04,SW,219,3.0,3.0,87,0.00,,,0.00,Wunderground v.1.15,2013-01-17 01:40:00,
2013-01-16 19:44:00,31.2,27.5,30.04,SW,217,3.0,5.0,86,0.00,,,0.00,Wunderground v.1.15,2013-01-17 01:44:00,
2013-01-16 19:45:00,31.3,27.6,30.04,SW,218,3.0,5.0,86,0.00,,,0.00,Wunderground v.1.15,2013-01-17 01:45:00,
2013-01-16 19:46:00,31.3,27.6,30.04,SW,218,3.0,5.0,86,0.00,,,0.00,Wunderground v.1.15,2013-01-17 01:46:00,
2013-01-16 19:50:00,31.3,27.9,30.04,SW,218,3.0,3.0,87,0.00,,,0.00,Wunderground v.1.15,2013-01-17 01:50:00,
2013-01-16 19:51:00,31.3,27.9,30.04,SW,218,3.0,3.0,87,0.00,,,0.00,Wunderground v.1.15,2013-01-17 01:51:00,
2013-01-16 19:52:00,31.3,27.9,30.04,SW,217,3.0,3.0,87,0.00,,,0.00,Wunderground v.1.15,2013-01-17 01:52:00,
2013-01-16 19:54:00,31.4,28.0,30.04,SW,217,3.0,4.0,87,0.00,,,0.00,Wunderground v.1.15,2013-01-17 01:54:00,
2013-01-16 19:56:00,31.4,28.0,30.05,SW,216,3.0,4.0,87,0.00,,,0.00,Wunderground v.1.15,2013-01-17 01:56:00,
2013-01-16 19:59:00,31.4,27.7,30.05,SSW,212,3.0,4.0,86,0.00,,,0.00,Wunderground v.1.15,2013-01-17 01:59:00,
2013-01-16 20:00:00,31.4,27.7,30.05,SSW,212,3.0,3.0,86,0.00,,,0.00,Wunderground v.1.15,2013-01-17 02:00:00,
2013-01-16 20:01:00,31.4,27.7,30.05,SSW,212,3.0,3.0,86,0.00,,,0.00,Wunderground v.1.15,2013-01-17 02:01:00,
2013-01-16 20:02:00,31.4,27.7,30.05,SSW,212,3.0,4.0,86,0.00,,,0.00,Wunderground v.1.15,2013-01-17 02:02:00,
2013-01-16 20:06:00,31.3,27.6,30.05,SW,217,3.0,5.0,86,0.00,,,0.00,Wunderground v.1.15,2013-01-17 02:06:00,
2013-01-16 20:08:00,31.4,27.7,30.05,SW,217,3.0,5.0,86,0.00,,,0.00,Wunderground v.1.15,2013-01-17 02:08:00,
2013-01-16 20:09:00,31.4,27.7,30.05,SW,215,3.0,5.0,86,0.00,,,0.00,Wunderground v.1.15,2013-01-17 02:09:00,
2013-01-16 20:10:00,31.4,27.7,30.05,SW,215,3.0,3.0,86,0.00,,,0.00,Wunderground v.1.15,2013-01-17 02:10:00,
2013-01-16 20:12:00,31.4,27.7,30.04,SW,216,3.0,4.0,86,0.00,,,0.00,Wunderground v.1.15,2013-01-17 02:12:00,
2013-01-16 20:16:00,31.4,28.0,30.05,SW,215,3.0,4.0,87,0.00,,,0.00,Wunderground v.1.15,2013-01-17 02:16:00,
2013-01-16 20:17:00,31.4,28.0,30.05,SW,215,3.0,4.0,87,0.00,,,0.00,Wunderground v.1.15,2013-01-17 02:17:00,
2013-01-16 20:19:00,31.4,28.0,30.05,SW,215,3.0,4.0,87,0.00,,,0.00,Wunderground v.1.15,2013-01-17 02:19:00,
2013-01-16 20:20:00,31.4,28.0,30.05,SSW,210,3.0,5.0,87,0.00,,,0.00,Wunderground v.1.15,2013-01-17 02:20:00,
2013-01-16 20:22:00,31.4,28.0,30.05,SSW,207,3.0,5.0,87,0.00,,,0.00,Wunderground v.1.15,2013-01-17 02:22:00,
2013-01-16 20:24:00,31.4,28.0,30.05,SSW,207,3.0,5.0,87,0.00,,,0.00,Wunderground v.1.15,2013-01-17 02:24:00,
2013-01-16 20:27:00,31.5,28.1,30.05,SSW,207,3.0,5.0,87,0.00,,,0.00,Wunderground v.1.15,2013-01-17 02:27:00,
2013-01-16 20:28:00,31.5,28.1,30.05,SSW,200,3.0,5.0,87,0.00,,,0.00,Wunderground v.1.15,2013-01-17 02:28:00,
2013-01-16 20:33:00,31.6,28.2,30.05,SSW,213,3.0,3.0,87,0.00,,,0.00,Wunderground v.1.15,2013-01-17 02:33:00,
2013-01-16 20:34:00,31.6,28.2,30.05,South,186,3.0,3.0,87,0.00,,,0.00,Wunderground v.1.15,2013-01-17 02:34:00,
2013-01-16 20:35:00,31.6,28.2,30.05,South,188,3.0,5.0,87,0.00,,,0.00,Wunderground v.1.15,2013-01-17 02:35:00,
2013-01-16 20:41:00,31.6,28.2,30.06,SSW,192,3.0,3.0,87,0.00,,,0.00,Wunderground v.1.15,2013-01-17 02:41:00,
2013-01-16 20:42:00,31.7,28.3,30.06,SSW,192,3.0,3.0,87,0.00,,,0.00,Wunderground v.1.15,2013-01-17 02:42:00,
2013-01-16 20:44:00,31.7,28.3,30.06,SSW,201,3.0,4.0,87,0.00,,,0.00,Wunderground v.1.15,2013-01-17 02:44:00,
2013-01-16 20:45:00,31.7,28.3,30.06,SSW,202,3.0,4.0,87,0.00,,,0.00,Wunderground v.1.15,2013-01-17 02:45:00,
2013-01-16 20:47:00,31.7,28.3,30.06,SSW,211,3.0,4.0,87,0.00,,,0.00,Wunderground v.1.15,2013-01-17 02:47:00,
2013-01-16 20:49:00,31.7,28.3,30.06,SSW,211,3.0,4.0,87,0.00,,,0.00,Wunderground v.1.15,2013-01-17 02:49:00,
2013-01-16 20:50:00,31.7,28.3,30.06,SSW,211,3.0,3.0,87,0.00,,,0.00,Wunderground v.1.15,2013-01-17 02:50:00,
2013-01-16 20:53:00,31.8,28.4,30.06,SW,219,3.0,3.0,87,0.00,,,0.00,Wunderground v.1.15,2013-01-17 02:53:00,
2013-01-16 20:55:00,31.9,28.5,30.07,SW,223,3.0,4.0,87,0.00,,,0.00,Wunderground v.1.15,2013-01-17 02:55:00,
2013-01-16 20:57:00,31.9,28.5,30.07,SW,220,3.0,4.0,87,0.00,,,0.00,Wunderground v.1.15,2013-01-17 02:57:00,
2013-01-16 20:59:00,32.0,28.6,30.06,SW,220,3.0,4.0,87,0.00,,,0.00,Wunderground v.1.15,2013-01-17 02:59:00,
2013-01-16 21:01:00,32.0,28.6,30.07,SW,220,3.0,3.0,87,0.00,,,0.00,Wunderground v.1.15,2013-01-17 03:01:00,
2013-01-16 21:03:00,32.0,28.6,30.07,SW,220,3.0,3.0,87,0.00,,,0.00,Wunderground v.1.15,2013-01-17 03:03:00,
2013-01-16 21:04:00,32.0,28.6,30.07,SW,220,2.0,3.0,87,0.00,,,0.00,Wunderground v.1.15,2013-01-17 03:04:00,
2013-01-16 21:05:00,32.0,28.6,30.07,SW,220,2.0,3.0,87,0.00,,,0.00,Wunderground v.1.15,2013-01-17 03:05:00,
2013-01-16 21:07:00,32.1,28.7,30.07,SW,220,2.0,3.0,87,0.00,,,0.00,Wunderground v.1.15,2013-01-17 03:07:00,
2013-01-16 21:09:00,32.1,28.7,30.07,SW,220,1.0,3.0,87,0.00,,,0.00,Wunderground v.1.15,2013-01-17 03:09:00,
2013-01-16 21:10:00,32.1,28.7,30.07,SW,220,1.0,3.0,87,0.00,,,0.00,Wunderground v.1.15,2013-01-17 03:10:00,
2013-01-16 21:11:00,32.1,28.7,30.07,SW,220,1.0,3.0,87,0.00,,,0.00,Wunderground v.1.15,2013-01-17 03:11:00,
2013-01-16 21:13:00,32.1,28.7,30.07,SW,220,1.0,3.0,87,0.00,,,0.00,Wunderground v.1.15,2013-01-17 03:13:00,
2013-01-16 21:15:00,32.1,28.7,30.07,SW,220,1.0,3.0,87,0.00,,,0.00,Wunderground v.1.15,2013-01-17 03:15:00,
2013-01-16 21:17:00,32.1,28.7,30.07,SW,220,1.0,3.0,87,0.00,,,0.00,Wunderground v.1.15,2013-01-17 03:17:00,
2013-01-16 21:20:00,32.2,28.8,30.07,SW,220,1.0,1.0,87,0.00,,,0.00,Wunderground v.1.15,2013-01-17 03:20:00,
2013-01-16 21:21:00,32.2,28.8,30.07,SW,220,1.0,1.0,87,0.00,,,0.00,Wunderground v.1.15,2013-01-17 03:21:00,
2013-01-16 21:22:00,32.2,28.8,30.07,SW,220,1.0,1.0,87,0.00,,,0.00,Wunderground v.1.15,2013-01-17 03:22:00,
2013-01-16 21:26:00,32.2,28.8,30.07,SW,220,0.0,1.0,87,0.00,,,0.00,Wunderground v.1.15,2013-01-17 03:26:00,
2013-01-16 21:28:00,32.2,28.8,30.07,SW,220,0.0,2.0,87,0.00,,,0.00,Wunderground v.1.15,2013-01-17 03:28:00,
2013-01-16 21:29:00,32.2,29.0,30.07,SW,220,0.0,2.0,88,0.00,,,0.00,Wunderground v.1.15,2013-01-17 03:29:00,
2013-01-16 21:30:00,32.2,29.0,30.07,SW,220,0.0,0.0,88,0.00,,,0.00,Wunderground v.1.15,2013-01-17 03:30:00,
2013-01-16 21:32:00,32.2,29.0,30.07,SW,220,0.0,0.0,88,0.00,,,0.00,Wunderground v.1.15,2013-01-17 03:32:00,
2013-01-16 21:35:00,32.2,29.0,30.07,SW,220,0.0,0.0,88,0.00,,,0.00,Wunderground v.1.15,2013-01-17 03:35:00,
2013-01-16 21:36:00,32.2,29.0,30.07,SW,220,0.0,0.0,88,0.00,,,0.00,Wunderground v.1.15,2013-01-17 03:36:00,
2013-01-16 21:37:00,32.2,29.0,30.07,SW,220,0.0,0.0,88,0.00,,,0.00,Wunderground v.1.15,2013-01-17 03:37:00,
2013-01-16 21:38:00,32.2,29.0,30.07,SW,220,0.0,0.0,88,0.00,,,0.00,Wunderground v.1.15,2013-01-17 03:38:00,
2013-01-16 21:41:00,32.2,29.3,30.07,SW,220,0.0,0.0,89,0.00,,,0.00,Wunderground v.1.15,2013-01-17 03:41:00,
2013-01-16 21:42:00,32.2,29.3,30.07,SW,220,0.0,2.0,89,0.00,,,0.00,Wunderground v.1.15,2013-01-17 03:42:00,
2013-01-16 21:43:00,32.2,29.3,30.07,SW,220,0.0,2.0,89,0.00,,,0.00,Wunderground v.1.15,2013-01-17 03:43:00,
2013-01-16 21:46:00,32.1,29.2,30.07,SW,220,1.0,2.0,89,0.00,,,0.00,Wunderground v.1.15,2013-01-17 03:46:00,
2013-01-16 21:48:00,32.1,29.2,30.07,SW,220,1.0,2.0,89,0.00,,,0.00,Wunderground v.1.15,2013-01-17 03:48:00,
2013-01-16 21:52:00,32.2,29.6,30.07,SW,220,2.0,3.0,90,0.00,,,0.00,Wunderground v.1.15,2013-01-17 03:52:00,
2013-01-16 21:53:00,32.2,29.6,30.06,SW,220,2.0,3.0,90,0.00,,,0.00,Wunderground v.1.15,2013-01-17 03:53:00,
2013-01-16 21:56:00,32.2,29.6,30.06,SW,220,2.0,3.0,90,0.00,,,0.00,Wunderground v.1.15,2013-01-17 03:56:00,
2013-01-16 21:57:00,32.3,29.7,30.06,SW,220,2.0,3.0,90,0.00,,,0.00,Wunderground v.1.15,2013-01-17 03:57:00,
2013-01-16 22:01:00,32.4,30.1,30.06,SW,221,2.0,3.0,91,0.00,,,0.00,Wunderground v.1.15,2013-01-17 04:01:00,
2013-01-16 22:02:00,32.4,30.1,30.06,SW,221,2.0,3.0,91,0.00,,,0.00,Wunderground v.1.15,2013-01-17 04:02:00,
2013-01-16 22:03:00,32.4,30.1,30.06,SW,222,2.0,3.0,91,0.00,,,0.00,Wunderground v.1.15,2013-01-17 04:03:00,
2013-01-16 22:06:00,32.5,30.2,30.06,SW,221,3.0,3.0,91,0.00,,,0.00,Wunderground v.1.15,2013-01-17 04:06:00,
2013-01-16 22:07:00,32.5,30.2,30.06,SW,221,3.0,3.0,91,0.00,,,0.00,Wunderground v.1.15,2013-01-17 04:07:00,
2013-01-16 22:08:00,32.5,30.2,30.06,SW,222,3.0,5.0,91,0.00,,,0.00,Wunderground v.1.15,2013-01-17 04:08:00,
2013-01-16 22:09:00,32.5,30.2,30.06,SW,231,3.0,5.0,91,0.00,,,0.00,Wunderground v.1.15,2013-01-17 04:09:00,
2013-01-16 22:13:00,32.5,30.2,30.06,SW,224,3.0,5.0,91,0.00,,,0.00,Wunderground v.1.15,2013-01-17 04:13:00,
2013-01-16 22:14:00,32.5,30.4,30.06,SW,224,3.0,5.0,92,0.00,,,0.00,Wunderground v.1.15,2013-01-17 04:14:00,
2013-01-16 22:15:00,32.5,30.4,30.06,SW,224,3.0,5.0,92,0.00,,,0.00,Wunderground v.1.15,2013-01-17 04:15:00,
2013-01-16 22:17:00,32.5,30.4,30.06,SW,224,3.0,5.0,92,0.00,,,0.00,Wunderground v.1.15,2013-01-17 04:17:00,
2013-01-16 22:19:00,32.5,30.2,30.05,SSW,212,3.0,5.0,91,0.00,,,0.00,Wunderground v.1.15,2013-01-17 04:19:00,
2013-01-16 22:20:00,32.5,30.4,30.06,SSW,213,3.0,3.0,92,0.00,,,0.00,Wunderground v.1.15,2013-01-17 04:20:00,
2013-01-16 22:22:00,32.5,30.4,30.06,SSW,213,3.0,3.0,92,0.00,,,0.00,Wunderground v.1.15,2013-01-17 04:22:00,
2013-01-16 22:23:00,32.5,30.4,30.06,SSW,213,3.0,3.0,92,0.00,,,0.00,Wunderground v.1.15,2013-01-17 04:23:00,
2013-01-16 22:24:00,32.5,30.4,30.06,SSW,213,3.0,3.0,92,0.00,,,0.00,Wunderground v.1.15,2013-01-17 04:24:00,
2013-01-16 22:29:00,32.5,30.2,30.07,SW,235,3.0,5.0,91,0.00,,,0.00,Wunderground v.1.15,2013-01-17 04:29:00,
2013-01-16 22:30:00,32.5,30.2,30.07,SW,235,3.0,3.0,91,0.00,,,0.00,Wunderground v.1.15,2013-01-17 04:30:00,
2013-01-16 22:32:00,32.5,30.2,30.07,SW,235,3.0,3.0,91,0.00,,,0.00,Wunderground v.1.15,2013-01-17 04:32:00,
2013-01-16 22:37:00,32.3,30.0,30.06,SW,232,3.0,3.0,91,0.00,,,0.00,Wunderground v.1.15,2013-01-17 04:37:00,
2013-01-16 22:39:00,32.2,29.9,30.07,SW,232,3.0,3.0,91,0.00,,,0.00,Wunderground v.1.15,2013-01-17 04:39:00,
2013-01-16 22:41:00,32.1,29.8,30.07,SW,232,3.0,3.0,91,0.00,,,0.00,Wunderground v.1.15,2013-01-17 04:41:00,
2013-01-16 22:42:00,32.1,29.8,30.07,SW,232,2.0,3.0,91,0.00,,,0.00,Wunderground v.1.15,2013-01-17 04:42:00,
2013-01-16 22:44:00,32.1,29.8,30.07,SW,232,2.0,3.0,91,0.00,,,0.00,Wunderground v.1.15,2013-01-17 04:44:00,
2013-01-16 22:46:00,32.0,29.7,30.07,SW,232,1.0,3.0,91,0.00,,,0.00,Wunderground v.1.15,2013-01-17 04:46:00,
2013-01-16 22:47:00,32.0,29.7,30.07,SW,232,1.0,3.0,91,0.00,,,0.00,Wunderground v.1.15,2013-01-17 04:47:00,
2013-01-16 22:48:00,32.0,29.7,30.07,SW,232,1.0,3.0,91,0.00,,,0.00,Wunderground v.1.15,2013-01-17 04:48:00,
2013-01-16 22:50:00,31.9,29.6,30.07,SW,232,0.0,0.0,91,0.00,,,0.00,Wunderground v.1.15,2013-01-17 04:50:00,
2013-01-16 22:52:00,31.8,29.5,30.07,SW,232,0.0,0.0,91,0.00,,,0.00,Wunderground v.1.15,2013-01-17 04:52:00,
2013-01-16 22:53:00,31.8,29.2,30.07,SW,232,0.0,0.0,90,0.00,,,0.00,Wunderground v.1.15,2013-01-17 04:53:00,
2013-01-16 22:54:00,31.8,29.2,30.07,SW,232,0.0,0.0,90,0.00,,,0.00,Wunderground v.1.15,2013-01-17 04:54:00,
2013-01-16 22:57:00,31.6,29.0,30.08,SW,232,0.0,0.0,90,0.00,,,0.00,Wunderground v.1.15,2013-01-17 04:57:00,
2013-01-16 22:59:00,31.6,29.0,30.08,SW,232,0.0,0.0,90,0.00,,,0.00,Wunderground v.1.15,2013-01-17 04:59:00,
2013-01-16 23:02:00,31.4,28.8,30.07,SW,232,0.0,2.0,90,0.00,,,0.00,Wunderground v.1.15,2013-01-17 05:02:00,
2013-01-16 23:06:00,31.4,29.1,30.08,SW,232,0.0,2.0,91,0.00,,,0.00,Wunderground v.1.15,2013-01-17 05:06:00,
2013-01-16 23:07:00,31.4,29.1,30.08,SW,232,0.0,2.0,91,0.00,,,0.00,Wunderground v.1.15,2013-01-17 05:07:00,
2013-01-16 23:08:00,31.4,29.1,30.08,SW,232,0.0,2.0,91,0.00,,,0.00,Wunderground v.1.15,2013-01-17 05:08:00,
2013-01-16 23:11:00,31.4,29.1,30.08,SW,232,0.0,0.0,91,0.00,,,0.00,Wunderground v.1.15,2013-01-17 05:11:00,
2013-01-16 23:13:00,31.4,29.1,30.09,SW,233,1.0,3.0,91,0.00,,,0.00,Wunderground v.1.15,2013-01-17 05:13:00,
2013-01-16 23:16:00,31.7,29.6,30.09,WSW,238,1.0,3.0,92,0.00,,,0.00,Wunderground v.1.15,2013-01-17 05:16:00,
2013-01-16 23:17:00,31.8,29.7,30.09,WSW,238,1.0,3.0,92,0.00,,,0.00,Wunderground v.1.15,2013-01-17 05:17:00,
2013-01-16 23:18:00,31.9,29.8,30.09,WSW,238,1.0,3.0,92,0.00,,,0.00,Wunderground v.1.15,2013-01-17 05:18:00,
2013-01-16 23:22:00,32.4,30.6,30.09,NW,315,2.0,5.0,93,0.00,,,0.00,Wunderground v.1.15,2013-01-17 05:22:00,
2013-01-16 23:23:00,32.5,30.7,30.09,NW,315,2.0,5.0,93,0.00,,,0.00,Wunderground v.1.15,2013-01-17 05:23:00,
2013-01-16 23:24:00,32.6,30.8,30.10,NW,315,2.0,5.0,93,0.00,,,0.00,Wunderground v.1.15,2013-01-17 05:24:00,
2013-01-16 23:29:00,32.9,30.8,30.10,NW,317,2.0,5.0,92,0.00,,,0.00,Wunderground v.1.15,2013-01-17 05:29:00,
2013-01-16 23:32:00,33.1,31.0,30.10,NW,317,2.0,3.0,92,0.00,,,0.00,Wunderground v.1.15,2013-01-17 05:32:00,
2013-01-16 23:34:00,33.1,31.0,30.10,NW,317,2.0,3.0,92,0.00,,,0.00,Wunderground v.1.15,2013-01-17 05:34:00,
2013-01-16 23:39:00,33.1,30.8,30.10,NNW,336,2.0,5.0,91,0.00,,,0.00,Wunderground v.1.15,2013-01-17 05:39:00,
2013-01-16 23:42:00,33.1,30.8,30.11,NNW,333,2.0,2.0,91,0.00,,,0.00,Wunderground v.1.15,2013-01-17 05:42:00,
2013-01-16 23:43:00,33.1,30.8,30.11,NNW,333,2.0,2.0,91,0.00,,,0.00,Wunderground v.1.15,2013-01-17 05:43:00,
2013-01-16 23:44:00,33.1,30.8,30.11,NNW,333,2.0,2.0,91,0.00,,,0.00,Wunderground v.1.15,2013-01-17 05:44:00,
2013-01-16 23:45:00,33.1,30.8,30.11,NNW,333,2.0,2.0,91,0.00,,,0.00,Wunderground v.1.15,2013-01-17 05:45:00,
2013-01-16 23:49:00,33.1,30.8,30.11,NNW,333,1.0,2.0,91,0.00,,,0.00,Wunderground v.1.15,2013-01-17 05:49:00,
2013-01-16 23:50:00,33.1,30.8,30.12,NNW,333,1.0,1.0,91,0.00,,,0.00,Wunderground v.1.15,2013-01-17 05:50:00,
2013-01-16 23:51:00,33.1,30.8,30.11,NNW,333,1.0,1.0,91,0.00,,,0.00,Wunderground v.1.15,2013-01-17 05:51:00,
2013-01-16 23:55:00,33.0,30.7,30.12,NNW,333,1.0,1.0,91,0.00,,,0.00,Wunderground v.1.15,2013-01-17 05:55:00,
2013-01-16 23:56:00,33.0,30.7,30.12,NNW,333,1.0,1.0,91,0.00,,,0.00,Wunderground v.1.15,2013-01-17 05:56:00,
2013-01-16 23:57:00,33.0,30.7,30.12,NNW,333,1.0,1.0,91,0.00,,,0.00,Wunderground v.1.15,2013-01-17 05:57:00,